SV835 / HZ-ARH 7700 Squawk Report (25th of April, 2019)

Aircraft B789 Reg No. HZ-ARH Age 1 years old
Model 787 Jet engines 2 First flight 16-08-17
Registered 24-08-17 Rollout N/A Delivered 24-08-17
Construction No. 41551 Line No. 0594 Series 9
ADSHEX 710130 Airline name Saudia Owner N/A
Airfield based Jeddah~ ~HZ First tracked 2017-09-07 17:51:00

Flight history for HZ-ARH

Route Flight No Date Playback
Baiyun Intl (CAN) - King Khaled Intl (RUH) SV885 2019-05-23 17:08:00
King Khaled Intl (RUH) - Baiyun Intl (CAN) SV884 2019-05-23 08:21:00
Baiyun Intl (CAN) - King Khaled Intl (RUH) SV885 2019-05-22 16:42:00
King Khaled Intl (RUH) - Baiyun Intl (CAN) SV884 2019-05-22 05:28:00
King Abdulaziz Intl (JED) - King Khaled Intl (RUH) SV1030 2019-05-21 11:38:00
King Khaled Intl (RUH) - King Abdulaziz Intl (JED) SV1025 2019-05-21 08:02:00
Mohammed V International (CMN) - King Khaled Intl (RUH) SV374 2019-05-21 05:24:00
King Khaled Intl (RUH) - Mohammed V International (CMN) SV375 2019-05-20 20:33:00
King Abdulaziz Intl (JED) - King Khaled Intl (RUH) SV1030 2019-05-20 13:29:00
King Khaled Intl (RUH) - King Abdulaziz Intl (JED) SV1027 2019-05-20 11:21:00
Mohammed V International (CMN) - King Khaled Intl (RUH) SV374 2019-05-20 04:37:00
King Khaled Intl (RUH) - Mohammed V International (CMN) SV375 2019-05-19 19:03:00
Mohammed V International (CMN) - King Khaled Intl (RUH) SV374 2019-05-19 03:19:00
King Khaled Intl (RUH) - Mohammed V International (CMN) SV375 2019-05-18 21:27:00
King Abdulaziz Intl (JED) - King Khaled Intl (RUH) SV1030 2019-05-18 12:59:00
Mohammed V International (CMN) - King Abdulaziz Intl (JED) SV372 2019-05-17 23:35:00
King Abdulaziz Intl (JED) - Mohammed V International (CMN) SV373 2019-05-17 16:24:00
Mohammed V International (CMN) - King Abdulaziz Intl (JED) SV372 2019-05-17 11:18:00
King Abdulaziz Intl (JED) - Mohammed V International (CMN) SV373 2019-05-16 16:17:00
Mohammed V International (CMN) - King Abdulaziz Intl (JED) SV372 2019-05-15 23:20:00
Time Lat Lon Altitude Heading Speed Vertical Rate
2019-04-25 21:49:30 GMT 24.119019 44.280804 38,000 242 426 0
2019-04-25 21:49:20 GMT 24.129181 44.301250 37,975 242 426 0
2019-04-25 21:49:08 GMT 24.140442 44.323986 37,975 242 426 -64
2019-04-25 21:48:55 GMT 24.152069 44.347534 37,975 242 427 -64
2019-04-25 21:48:34 GMT 24.172342 44.388393 38,000 242 427 -64
2019-04-25 21:48:26 GMT 24.179699 44.403214 38,000 242 426 -64
2019-04-25 21:48:14 GMT 24.191242 44.426792 38,000 242 426 0
2019-04-25 21:47:41 GMT 24.221466 44.487408 38,000 241 425 0
2019-04-25 21:46:39 GMT 24.279373 44.605511 38,000 246 421 -128
2019-04-25 21:45:23 GMT 24.332520 44.755352 37,300 251 408 576
2019-04-25 21:45:02 GMT 24.345516 44.795563 37,075 251 405 1216
2019-04-25 21:44:51 GMT 24.352249 44.816284 36,825 251 406 2176
2019-04-25 21:44:40 GMT 24.359161 44.837238 36,400 251 411 3264
2019-04-25 21:44:30 GMT 24.366257 44.858551 35,800 250 419 3200
2019-04-25 21:44:20 GMT 24.373032 44.878643 35,400 250 426 2496
2019-04-25 21:44:08 GMT 24.380814 44.901783 34,950 250 428 2048
2019-04-25 21:43:55 GMT 24.389509 44.927761 34,600 251 430 1600
2019-04-25 21:43:46 GMT 24.395607 44.946259 34,350 251 430 1792
2019-04-25 21:43:36 GMT 24.402649 44.967396 34,050 251 431 1792
2019-04-25 21:43:23 GMT 24.411575 44.994350 33,700 251 431 1856
2019-04-25 21:43:14 GMT 24.417999 45.013680 33,425 250 432 1984
2019-04-25 21:43:01 GMT 24.426378 45.038815 33,100 251 433 2048
2019-04-25 21:42:51 GMT 24.433273 45.059765 32,700 251 434 1920
2019-04-25 21:42:41 GMT 24.440140 45.080517 32,400 250 435 1600
2019-04-25 21:42:31 GMT 24.447094 45.101418 32,175 251 434 1152
2019-04-25 21:42:21 GMT 24.454355 45.123283 32,025 251 430 1024
2019-04-25 21:42:10 GMT 24.461803 45.145828 31,775 251 429 1600
2019-04-25 21:41:59 GMT 24.469254 45.168560 31,475 251 428 1728
2019-04-25 21:41:48 GMT 24.476330 45.189980 31,225 251 428 1536
2019-04-25 21:41:38 GMT 24.483265 45.211227 30,975 251 427 1472
2019-04-25 21:41:27 GMT 24.490540 45.233410 30,700 251 426 1600
2019-04-25 21:41:15 GMT 24.498184 45.256550 30,375 251 426 1920
2019-04-25 21:41:05 GMT 24.505234 45.278065 30,050 251 425 1728
2019-04-25 21:40:54 GMT 24.512558 45.300446 29,775 251 424 1536
2019-04-25 21:40:43 GMT 24.519669 45.322075 29,525 251 423 1536
2019-04-25 21:40:32 GMT 24.526838 45.343891 29,275 251 421 1472
2019-04-25 21:40:21 GMT 24.534073 45.365803 28,975 251 421 1856
2019-04-25 21:40:09 GMT 24.542433 45.390896 28,600 251 421 1792
2019-04-25 21:39:58 GMT 24.549694 45.412971 28,300 251 420 1792
2019-04-25 21:39:47 GMT 24.556725 45.434635 27,975 251 419 1728
2019-04-25 21:39:36 GMT 24.564034 45.457539 27,650 251 419 1920
2019-04-25 21:39:25 GMT 24.570784 45.478424 27,350 251 420 1792
2019-04-25 21:39:15 GMT 24.577766 45.499722 27,025 251 419 1920
2019-04-25 21:39:04 GMT 24.585169 45.522163 26,675 251 419 1728
2019-04-25 21:38:53 GMT 24.591871 45.542580 26,425 251 418 1536
2019-04-25 21:38:42 GMT 24.599228 45.564968 26,150 251 417 1472
2019-04-25 21:38:32 GMT 24.605743 45.584866 25,900 251 415 1536
2019-04-25 21:38:21 GMT 24.612961 45.607044 25,625 251 414 1600
2019-04-25 21:38:10 GMT 24.619720 45.627796 25,350 251 412 1600
2019-04-25 21:38:00 GMT 24.626459 45.648502 25,050 251 412 1856
2019-04-25 21:37:49 GMT 24.633444 45.669701 24,725 251 411 1856
2019-04-25 21:37:37 GMT 24.640984 45.692917 24,400 251 410 1728
2019-04-25 21:37:26 GMT 24.648422 45.715893 24,075 251 409 1792
2019-04-25 21:37:14 GMT 24.655788 45.738365 23,750 251 408 1856
2019-04-25 21:37:03 GMT 24.662796 45.760040 23,425 251 407 1792
2019-04-25 21:36:51 GMT 24.670578 45.784199 23,050 251 405 1792
2019-04-25 21:36:44 GMT 24.675156 45.798542 22,850 251 404 1728
2019-04-25 21:36:40 GMT 24.677341 45.805321 22,750 251 403 1856
2019-04-25 21:36:36 GMT 24.679949 45.813454 22,625 251 403 1984
2019-04-25 21:36:28 GMT 24.684631 45.827991 22,375 251 403 2112
2019-04-25 21:36:18 GMT 24.691074 45.847866 22,025 251 403 2176
2019-04-25 21:36:09 GMT 24.696754 45.865227 21,725 251 403 2176
2019-04-25 21:36:03 GMT 24.700699 45.877430 21,525 251 402 1920
2019-04-25 21:35:53 GMT 24.706623 45.895699 21,250 251 401 1792
2019-04-25 21:35:40 GMT 24.714981 45.921173 20,850 251 399 2048
2019-04-25 21:35:26 GMT 24.723770 45.947926 20,400 251 398 1984
2019-04-25 21:35:12 GMT 24.732285 45.974121 19,925 251 396 2368
2019-04-25 21:34:59 GMT 24.739861 45.997944 19,500 251 395 1984
2019-04-25 21:34:52 GMT 24.744982 46.013851 19,250 251 394 1792
2019-04-25 21:34:48 GMT 24.746475 46.018574 19,175 251 393 1792
2019-04-25 21:34:37 GMT 24.753035 46.039089 18,825 251 390 2112
2019-04-25 21:34:27 GMT 24.759554 46.059299 18,475 251 389 2112
2019-04-25 21:34:16 GMT 24.766022 46.079205 18,100 251 387 2176
2019-04-25 21:34:08 GMT 24.771841 46.097130 17,775 251 386 2240
2019-04-25 21:34:05 GMT 24.772385 46.098835 17,750 251 384 2240
2019-04-25 21:34:00 GMT 24.775892 46.109722 17,525 251 384 2240
2019-04-25 21:33:53 GMT 24.779800 46.121674 17,325 251 383 2112
2019-04-25 21:33:50 GMT 24.782318 46.129353 17,175 251 382 2048
2019-04-25 21:33:38 GMT 24.789021 46.149574 16,825 251 379 1856
2019-04-25 21:33:29 GMT 24.795584 46.169422 16,525 251 375 1728
2019-04-25 21:33:16 GMT 24.801590 46.187847 16,275 251 370 1536
2019-04-25 21:33:07 GMT 24.807999 46.207935 15,950 251 365 1984
2019-04-25 21:33:04 GMT 24.808548 46.209717 15,925 251 364 2112
2019-04-25 21:32:57 GMT 24.813087 46.223835 15,650 251 362 2304
2019-04-25 21:32:52 GMT 24.815552 46.231640 15,475 251 361 2368
2019-04-25 21:32:46 GMT 24.818720 46.241558 15,250 251 360 2560
2019-04-25 21:32:39 GMT 24.822397 46.252960 14,975 251 359 2624
2019-04-25 21:32:36 GMT 24.824306 46.258816 14,850 251 358 2624
2019-04-25 21:32:25 GMT 24.830338 46.277515 14,400 251 358 2624
2019-04-25 21:32:16 GMT 24.835897 46.294884 13,975 251 356 2624
2019-04-25 21:32:03 GMT 24.842468 46.315510 13,525 251 354 2560
2019-04-25 21:31:55 GMT 24.847071 46.329967 13,125 251 352 2560
2019-04-25 21:31:41 GMT 24.854053 46.351578 12,575 251 351 2816
2019-04-25 21:31:30 GMT 24.860001 46.370289 12,075 252 350 2944
2019-04-25 21:31:22 GMT 24.864578 46.384430 11,700 250 351 2496
2019-04-25 21:31:19 GMT 24.866318 46.389416 11,575 249 350 2240
2019-04-25 21:31:12 GMT 24.870766 46.401482 11,350 247 347 1600
2019-04-25 21:31:08 GMT 24.873093 46.407288 11,275 246 345 1344
2019-04-25 21:31:01 GMT 24.877748 46.418377 11,125 245 339 1280
2019-04-25 21:30:56 GMT 24.880875 46.425323 11,025 243 335 1216
2019-04-25 21:30:51 GMT 24.885635 46.435242 10,925 242 328 1152
2019-04-25 21:30:45 GMT 24.888748 46.441700 10,825 243 324 1088
2019-04-25 21:30:42 GMT 24.892460 46.449368 10,750 243 318 1152
2019-04-25 21:30:35 GMT 24.896072 46.456909 10,650 243 311 1152
2019-04-25 21:30:28 GMT 24.901245 46.467793 10,525 243 302 960
2019-04-25 21:30:20 GMT 24.907589 46.481079 10,375 243 288 1088
2019-04-25 21:30:13 GMT 24.909988 46.486156 10,300 243 286 1280
2019-04-25 21:30:09 GMT 24.912943 46.492432 10,175 243 279 2432
2019-04-25 21:30:02 GMT 24.916580 46.500141 9,900 243 278 2752
2019-04-25 21:29:58 GMT 24.919647 46.506702 9,675 243 277 2752
2019-04-25 21:29:52 GMT 24.922806 46.513470 9,450 243 275 2560
2019-04-25 21:29:48 GMT 24.924957 46.517944 9,300 243 275 2560
2019-04-25 21:29:41 GMT 24.928940 46.526386 9,025 243 272 2624
2019-04-25 21:29:38 GMT 24.931423 46.531658 8,850 243 271 2752
2019-04-25 21:29:31 GMT 24.935007 46.539276 8,600 243 269 2560
2019-04-25 21:29:28 GMT 24.936676 46.542767 8,475 243 268 2560
2019-04-25 21:29:20 GMT 24.941292 46.552284 8,175 242 265 2368
2019-04-25 21:29:17 GMT 24.943176 46.555939 8,050 241 264 2560
2019-04-25 21:29:07 GMT 24.949253 46.568039 7,650 242 262 3392
2019-04-25 21:28:57 GMT 24.955261 46.580151 6,950 242 264 4032
2019-04-25 21:28:46 GMT 24.961761 46.593018 6,375 242 269 3776
2019-04-25 21:28:36 GMT 24.968033 46.605579 5,675 242 270 3648
2019-04-25 21:28:26 GMT 24.974577 46.618565 5,050 241 272 3392
2019-04-25 21:28:16 GMT 24.979660 46.628620 4,250 242 263 1600
2019-04-25 21:28:05 GMT 24.986403 46.642143 4,250 242 262 1536
2019-04-25 21:27:54 GMT 24.992222 46.654324 4,000 243 246 1344
2019-04-25 21:27:44 GMT 24.996826 46.665649 3,800 256 230 1088
2019-04-25 21:27:34 GMT 24.997604 46.677349 3,625 281 214 1344
2019-04-25 21:27:23 GMT 24.993622 46.688030 3,375 308 197 1408
2019-04-25 21:27:12 GMT 24.986542 46.695160 3,050 327 185 2624
We lost coverage of the aircraft here for a total of 82 minutes
2019-04-25 20:05:06 GMT 24.942993 46.723431 1,900 331 160 -832
2019-04-25 20:04:56 GMT 24.936590 46.727444 2,025 331 160 -896
2019-04-25 20:04:43 GMT 24.928207 46.732788 2,200 331 159 -896
2019-04-25 20:04:26 GMT 24.917130 46.739758 2,425 331 160 -896
2019-04-25 20:04:23 GMT 24.915222 46.740971 2,475 331 160 -896
2019-04-25 20:04:12 GMT 24.908157 46.745453 2,625 331 162 -896
2019-04-25 20:04:01 GMT 24.900745 46.750092 2,775 331 163 -896
2019-04-25 20:03:51 GMT 24.894135 46.754288 2,925 330 163 -896
2019-04-25 20:03:40 GMT 24.887192 46.758678 3,075 331 164 -896
2019-04-25 20:03:30 GMT 24.879984 46.763203 3,225 331 164 -896
2019-04-25 20:03:17 GMT 24.870667 46.769104 3,400 330 169 -896
2019-04-25 20:03:06 GMT 24.861643 46.774757 3,575 330 183 -896
2019-04-25 20:02:54 GMT 24.854919 46.779022 3,700 331 193 -1216
2019-04-25 20:02:44 GMT 24.846680 46.784210 3,900 331 201 -1152
2019-04-25 20:02:35 GMT 24.839310 46.788891 4,075 331 208 -1344
2019-04-25 20:02:31 GMT 24.835852 46.791080 4,150 330 211 -1408
2019-04-25 20:02:22 GMT 24.826447 46.797028 4,400 330 217 -1344
2019-04-25 20:02:12 GMT 24.819977 46.801136 4,525 331 224 -1280
2019-04-25 20:02:01 GMT 24.810062 46.807407 4,750 331 223 -832
2019-04-25 20:01:51 GMT 24.800751 46.813263 4,800 331 221 -64
2019-04-25 20:01:42 GMT 24.789597 46.820221 4,800 331 222 -64
2019-04-25 20:01:32 GMT 24.782959 46.824390 4,800 330 222 -64
2019-04-25 20:01:28 GMT 24.780222 46.826164 4,800 329 221 0
2019-04-25 20:01:21 GMT 24.773798 46.830776 4,800 325 222 0
2019-04-25 20:01:17 GMT 24.771103 46.832989 4,800 322 222 -64
2019-04-25 20:01:10 GMT 24.765558 46.838604 4,800 313 222 0
2019-04-25 20:01:06 GMT 24.763090 46.841660 4,800 311 222 0
2019-04-25 20:00:59 GMT 24.757690 46.848553 4,800 311 222 -64
2019-04-25 20:00:56 GMT 24.756107 46.850628 4,800 311 222 0
2019-04-25 20:00:49 GMT 24.751602 46.856384 4,800 311 223 0
2019-04-25 20:00:45 GMT 24.748985 46.859749 4,800 311 222 0
2019-04-25 20:00:40 GMT 24.743631 46.866692 4,800 311 222 0
2019-04-25 20:00:34 GMT 24.741669 46.869202 4,800 311 222 0
2019-04-25 20:00:29 GMT 24.737162 46.874985 4,800 311 222 -64
2019-04-25 20:00:24 GMT 24.734507 46.878456 4,800 311 223 0
2019-04-25 20:00:13 GMT 24.726967 46.888096 4,800 311 223 0
2019-04-25 20:00:02 GMT 24.720154 46.896820 4,800 311 222 0
2019-04-25 19:59:51 GMT 24.712908 46.906128 4,800 311 222 0
2019-04-25 19:59:46 GMT 24.708857 46.911308 4,800 311 224 64
2019-04-25 19:59:40 GMT 24.705227 46.915974 4,775 311 226 0
2019-04-25 19:59:36 GMT 24.702200 46.919861 4,775 311 230 -128
2019-04-25 19:59:30 GMT 24.698009 46.925251 4,800 311 235 -320
2019-04-25 19:59:27 GMT 24.694931 46.929169 4,825 311 239 -576
2019-04-25 19:59:16 GMT 24.687721 46.938412 4,950 311 244 -832
2019-04-25 19:59:06 GMT 24.679138 46.949413 5,075 311 251 -448
2019-04-25 19:58:54 GMT 24.671631 46.959076 5,150 311 256 -896
2019-04-25 19:58:45 GMT 24.664169 46.968639 5,300 311 259 -832
2019-04-25 19:58:34 GMT 24.654831 46.980541 5,425 311 265 -640
2019-04-25 19:58:23 GMT 24.647129 46.990288 5,525 311 270 -640
2019-04-25 19:58:13 GMT 24.638563 47.001221 5,650 311 275 -1024
2019-04-25 19:58:02 GMT 24.629671 47.012520 5,900 311 278 -1856
2019-04-25 19:57:51 GMT 24.619757 47.025112 6,200 311 288 -1152
2019-04-25 19:57:43 GMT 24.611841 47.035217 6,325 311 291 -960
2019-04-25 19:57:29 GMT 24.600809 47.049572 6,525 311 295 -1152
2019-04-25 19:57:19 GMT 24.591431 47.061615 6,725 311 297 -960
2019-04-25 19:57:12 GMT 24.583818 47.071442 6,800 311 297 -64
2019-04-25 19:57:08 GMT 24.581955 47.073872 6,800 311 297 -64
2019-04-25 19:57:00 GMT 24.574322 47.083618 6,800 311 297 -256
2019-04-25 19:56:57 GMT 24.572067 47.086487 6,825 311 297 -384
2019-04-25 19:56:50 GMT 24.565750 47.094524 6,875 311 296 -896
2019-04-25 19:56:47 GMT 24.562729 47.098389 6,925 311 296 -1152
2019-04-25 19:56:41 GMT 24.556458 47.106426 7,075 311 297 -1536
2019-04-25 19:56:35 GMT 24.552475 47.111462 7,175 311 297 -1536
2019-04-25 19:56:29 GMT 24.546808 47.118652 7,325 311 297 -1472
2019-04-25 19:56:24 GMT 24.542542 47.124023 7,425 311 297 -1344
2019-04-25 19:56:19 GMT 24.537140 47.130890 7,550 311 298 -1280
2019-04-25 19:56:13 GMT 24.532791 47.136433 7,650 311 300 -1216
2019-04-25 19:56:09 GMT 24.528442 47.142029 7,725 311 301 -1088
2019-04-25 19:56:03 GMT 24.523178 47.148792 7,800 311 303 -896
2019-04-25 19:55:59 GMT 24.519064 47.154099 7,875 311 305 -768
2019-04-25 19:55:49 GMT 24.509567 47.166225 7,975 311 312 -640
2019-04-25 19:55:37 GMT 24.499237 47.179462 8,050 311 317 -576
2019-04-25 19:55:28 GMT 24.490667 47.190529 8,225 311 326 -960
2019-04-25 19:55:17 GMT 24.478180 47.206623 8,375 311 332 -1152
2019-04-25 19:55:06 GMT 24.468246 47.219341 8,550 311 338 -1664
2019-04-25 19:54:57 GMT 24.457535 47.232868 8,875 311 340 -2112
2019-04-25 19:54:45 GMT 24.446548 47.246704 9,225 311 339 -2304
2019-04-25 19:54:33 GMT 24.434990 47.261421 9,650 311 338 -2368
2019-04-25 19:54:24 GMT 24.424850 47.274220 10,025 311 336 -2368
2019-04-25 19:54:13 GMT 24.414047 47.287853 10,400 311 334 -2240
2019-04-25 19:54:02 GMT 24.403198 47.301788 10,775 311 333 -2304
2019-04-25 19:53:52 GMT 24.392443 47.315525 11,125 311 333 -1664
2019-04-25 19:53:41 GMT 24.381363 47.329559 11,350 311 338 -1152
2019-04-25 19:53:34 GMT 24.372377 47.340916 11,525 311 343 -1152
2019-04-25 19:53:30 GMT 24.370148 47.343700 11,550 311 344 -1088
2019-04-25 19:53:23 GMT 24.362183 47.353771 11,675 311 350 -960
2019-04-25 19:53:19 GMT 24.358690 47.358227 11,725 311 351 -896
2019-04-25 19:53:12 GMT 24.350830 47.368114 11,800 311 361 -1024
2019-04-25 19:53:08 GMT 24.346481 47.373608 11,875 311 360 -960
2019-04-25 19:53:03 GMT 24.338860 47.383152 12,000 311 364 -1728
2019-04-25 19:52:58 GMT 24.335554 47.387348 12,100 311 365 -2112
2019-04-25 19:52:52 GMT 24.328897 47.395744 12,300 311 366 -2240
2019-04-25 19:52:47 GMT 24.323544 47.402481 12,475 311 367 -2304
2019-04-25 19:52:35 GMT 24.310272 47.419331 12,900 311 369 -2240
2019-04-25 19:52:27 GMT 24.301292 47.430882 13,200 311 374 0
2019-04-25 19:52:24 GMT 24.298279 47.434742 13,300 311 371 -2240
2019-04-25 19:52:14 GMT 24.286396 47.450211 13,675 311 374 0
2019-04-25 19:52:11 GMT 24.281694 47.456272 13,825 311 375 -1984
2019-04-25 19:52:02 GMT 24.273781 47.466480 14,025 311 378 -1600
2019-04-25 19:51:58 GMT 24.268751 47.472908 14,150 311 380 -1408
2019-04-25 19:51:51 GMT 24.260885 47.482910 14,350 311 387 -1280
2019-04-25 19:51:40 GMT 24.245682 47.502186 14,550 311 392 -1536
2019-04-25 19:51:28 GMT 24.232674 47.518719 14,850 311 397 -1920
2019-04-25 19:51:19 GMT 24.220917 47.533569 15,125 311 401 -1792
2019-04-25 19:51:08 GMT 24.196224 47.564686 15,450 311 404 -2048
2019-04-25 19:50:58 GMT 24.196224 47.564686 15,750 311 407 -2112
2019-04-25 19:50:47 GMT 24.183050 47.581219 16,100 312 409 -2112
2019-04-25 19:50:35 GMT 24.168060 47.600029 16,500 311 412 -2048
2019-04-25 19:50:24 GMT 24.154907 47.616627 16,850 311 415 -1984
2019-04-25 19:50:13 GMT 24.140966 47.634388 17,200 311 417 -1984
2019-04-25 19:50:02 GMT 24.127047 47.652058 17,550 311 420 -2112
2019-04-25 19:49:52 GMT 24.114166 47.668407 17,875 311 423 -2048
2019-04-25 19:49:44 GMT 24.102236 47.683460 18,175 311 424 -2112
2019-04-25 19:49:41 GMT 24.100187 47.686104 18,250 311 425 -2112
2019-04-25 19:49:30 GMT 24.086222 47.703674 18,575 312 428 -2048
2019-04-25 19:49:19 GMT 24.071182 47.722473 18,975 312 429 -2176
2019-04-25 19:49:14 GMT 24.062805 47.732952 19,200 312 430 -2112
2019-04-25 19:49:09 GMT 24.057541 47.739513 19,325 312 430 -2112
2019-04-25 19:48:59 GMT 24.044403 47.755993 19,650 311 433 -1984
2019-04-25 19:48:51 GMT 24.034103 47.768963 19,875 311 435 -1984
2019-04-25 19:48:48 GMT 24.030266 47.773739 19,975 312 435 -2048
2019-04-25 19:48:40 GMT 24.018023 47.789078 20,275 312 437 -2176
2019-04-25 19:48:37 GMT 24.015881 47.791771 20,350 312 438 -2240
2019-04-25 19:48:31 GMT 24.008286 47.801258 20,550 312 438 -2176
2019-04-25 19:48:21 GMT 23.994095 47.819012 20,900 312 440 -2048
2019-04-25 19:48:15 GMT 23.986179 47.828876 21,100 312 441 -2048
2019-04-25 19:48:12 GMT 23.980501 47.835976 21,225 311 445 -2496
2019-04-25 19:48:05 GMT 23.972534 47.845917 21,425 311 444 -1984
2019-04-25 19:47:53 GMT 23.956852 47.865875 21,825 311 444 -3008
2019-04-25 19:47:43 GMT 23.943375 47.883045 22,450 311 437 -4672
2019-04-25 19:47:32 GMT 23.928595 47.901840 23,300 311 430 -4032
2019-04-25 19:47:21 GMT 23.915314 47.918854 23,800 311 429 -3072
2019-04-25 19:47:10 GMT 23.900944 47.937080 24,350 311 428 -2752
2019-04-25 19:46:59 GMT 23.886885 47.954754 24,750 311 429 -2752
2019-04-25 19:46:48 GMT 23.872499 47.972786 25,225 312 430 -2496
2019-04-25 19:46:38 GMT 23.858414 47.990314 25,725 312 432 -2496
2019-04-25 19:46:27 GMT 23.843628 48.008728 26,125 311 432 -3328
2019-04-25 19:46:13 GMT 23.825592 48.031464 26,850 311 430 -2944
2019-04-25 19:46:04 GMT 23.813599 48.046570 27,275 311 430 -2624
2019-04-25 19:45:53 GMT 23.800064 48.063477 27,675 312 432 -2560
2019-04-25 19:45:43 GMT 23.785818 48.081200 28,175 312 431 -3456
2019-04-25 19:45:32 GMT 23.771759 48.098652 28,800 312 428 -3200
2019-04-25 19:45:19 GMT 23.755417 48.118847 29,225 312 432 -1472
2019-04-25 19:45:14 GMT 23.746483 48.129860 29,400 312 437 -2048
2019-04-25 19:45:10 GMT 23.742645 48.134613 29,500 312 437 -2176
2019-04-25 19:44:57 GMT 23.726046 48.155407 30,025 311 435 -4160
2019-04-25 19:44:46 GMT 23.711884 48.173370 30,875 312 426 -3904
2019-04-25 19:44:34 GMT 23.695267 48.194019 31,575 312 423 -2944
2019-04-25 19:44:25 GMT 23.684242 48.207645 31,850 312 425 -1152
2019-04-25 19:44:13 GMT 23.668509 48.227180 32,050 312 432 -1216
2019-04-25 19:44:04 GMT 23.656078 48.242729 32,250 311 438 -1408
2019-04-25 19:43:51 GMT 23.639366 48.263870 9,650 311 442 -1728
2019-04-25 19:43:39 GMT 23.623215 48.284504 32,950 311 444 -3456
2019-04-25 19:43:17 GMT 23.594513 48.320362 34,500 312 434 -4992
2019-04-25 19:43:14 GMT 23.590719 48.325073 34,650 312 427 -3200
2019-04-25 19:43:03 GMT 23.575588 48.343834 35,175 312 427 -2368
2019-04-25 19:42:53 GMT 23.562698 48.359882 35,450 312 430 -2048
2019-04-25 19:42:42 GMT 23.548170 48.378036 35,775 312 432 -2240
2019-04-25 19:42:27 GMT 23.528183 48.402718 36,300 312 432 -2048
2019-04-25 19:42:18 GMT 23.516190 48.417496 36,475 312 441 -704
2019-04-25 19:41:38 GMT 23.461716 48.484913 36,975 312 447 -1152
2019-04-25 19:41:32 GMT 23.453476 48.495052 37,075 311 448 -832
2019-04-25 19:41:20 GMT 23.438353 48.513947 37,225 312 450 -1472
2019-04-25 19:41:07 GMT 23.420525 48.536175 37,475 312 450 -1216
2019-04-25 19:40:59 GMT 23.408421 48.551178 37,675 312 451 -1216
2019-04-25 19:40:20 GMT 23.354553 48.617699 38,000 312 453 -128
2019-04-25 19:39:55 GMT 23.320110 48.660480 38,000 312 453 64
2019-04-25 19:39:45 GMT 23.306238 48.677624 38,000 312 453 0
2019-04-25 19:39:19 GMT 23.270672 48.721668 37,975 311 451 64
2019-04-25 19:39:15 GMT 23.265060 48.728710 38,000 311 451 64
2019-04-25 19:39:03 GMT 23.248901 48.748936 37,975 311 450 64
2019-04-25 19:38:53 GMT 23.235443 48.765663 37,975 312 452 -64
2019-04-25 19:38:24 GMT 23.195023 48.815502 37,975 311 452 -64
2019-04-25 19:38:19 GMT 23.188274 48.823902 38,000 311 452 -64
2019-04-25 19:37:59 GMT 23.160624 48.858032 38,000 313 452 -64
2019-04-25 19:37:34 GMT 23.124825 48.900707 38,000 313 451 0
2019-04-25 19:37:21 GMT 23.106762 48.922169 37,975 313 451 0
2019-04-25 19:37:10 GMT 23.090935 48.940887 37,975 313 452 -64
2019-04-25 19:37:00 GMT 23.076645 48.957825 38,000 313 452 -64
2019-04-25 19:36:50 GMT 23.062866 48.974255 37,975 313 452 -64
2019-04-25 19:36:39 GMT 23.047827 48.992260 38,000 313 452 0
2019-04-25 19:36:29 GMT 23.032604 49.010365 37,975 313 453 0
2019-04-25 19:36:17 GMT 23.016083 49.030033 37,975 313 453 -64
2019-04-25 19:36:06 GMT 23.000902 49.047955 38,000 313 452 -64
2019-04-25 19:35:55 GMT 22.985634 49.066059 38,000 313 453 64
2019-04-25 19:35:44 GMT 22.970261 49.084366 37,975 313 453 0
2019-04-25 19:35:34 GMT 22.954926 49.102493 38,000 313 453 -64
2019-04-25 19:35:24 GMT 22.940523 49.119366 37,975 313 454 0
2019-04-25 19:35:13 GMT 22.924835 49.137775 37,975 313 455 0
2019-04-25 19:35:02 GMT 22.909836 49.155430 37,975 313 455 -64
2019-04-25 19:34:51 GMT 22.894089 49.173958 38,000 313 457 -128
2019-04-25 19:34:41 GMT 22.879122 49.191742 38,000 313 457 -64
2019-04-25 19:34:29 GMT 22.862411 49.211559 38,000 313 458 -64
2019-04-25 19:34:19 GMT 22.848450 49.228188 38,000 313 457 0
2019-04-25 19:33:47 GMT 22.802916 49.282074 37,975 313 455 0
2019-04-25 19:33:34 GMT 22.784180 49.304043 37,975 313 455 -64
2019-04-25 19:33:24 GMT 22.769444 49.321339 37,975 313 455 -64
2019-04-25 19:33:14 GMT 22.755890 49.337303 38,000 313 455 -64
2019-04-25 19:33:03 GMT 22.739639 49.356480 38,000 313 455 -64
2019-04-25 19:32:52 GMT 22.724579 49.374355 38,000 313 455 -64
2019-04-25 19:32:20 GMT 22.677923 49.429371 37,975 313 455 0
2019-04-25 19:32:10 GMT 22.663677 49.446209 37,975 313 455 0
2019-04-25 19:32:07 GMT 22.659395 49.451244 37,975 313 456 0
2019-04-25 19:28:32 GMT 22.529373 49.883423 37,975 273 431 64
2019-04-25 19:28:16 GMT 22.527924 49.916782 37,975 273 432 64
2019-04-25 19:27:40 GMT 22.524033 49.994236 38,000 274 435 -64
2019-04-25 19:26:49 GMT 22.518494 50.106148 37,975 274 433 0
2019-04-25 19:26:45 GMT 22.518127 50.113487 38,000 274 432 -64
2019-04-25 19:26:33 GMT 22.516806 50.139210 37,975 274 432 -64
2019-04-25 19:26:23 GMT 22.515736 50.160778 37,975 274 432 -64
2019-04-25 19:26:13 GMT 22.514664 50.183155 38,000 274 432 -64
2019-04-25 19:25:57 GMT 22.512909 50.218258 38,000 274 431 0
2019-04-25 19:25:51 GMT 22.512222 50.231640 38,000 274 432 -64
2019-04-25 19:25:32 GMT 22.510254 50.271290 38,000 274 432 -64
2019-04-25 19:24:06 GMT 22.500916 50.457458 37,975 274 435 0
2019-04-25 19:24:02 GMT 22.500412 50.466995 37,975 274 435 0
2019-04-25 19:23:53 GMT 22.499302 50.486755 38,000 274 435 0
2019-04-25 19:23:40 GMT 22.497894 50.513939 37,975 274 436 -64
2019-04-25 19:23:02 GMT 22.493528 50.597279 37,975 274 436 -64
2019-04-25 19:22:59 GMT 22.493156 50.603790 38,000 274 435 0
2019-04-25 19:22:37 GMT 22.490643 50.650280 37,975 274 435 0
We lost coverage of the aircraft here for a total of 16 minutes
2019-04-25 19:06:39 GMT 22.520157 52.688038 38,000 258 420 -64
2019-04-25 19:06:35 GMT 22.522202 52.698071 38,000 258 420 -64
2019-04-25 19:06:22 GMT 22.527466 52.723938 38,000 258 420 -64
2019-04-25 19:06:15 GMT 22.530487 52.738720 38,000 258 420 0
2019-04-25 19:06:04 GMT 22.534821 52.760265 38,000 258 420 0
2019-04-25 19:05:40 GMT 22.544876 52.809906 37,975 258 420 0
2019-04-25 19:04:59 GMT 22.561798 52.893974 38,000 258 421 -64
2019-04-25 19:04:48 GMT 22.566376 52.916550 38,000 258 420 -64
2019-04-25 19:04:32 GMT 22.573105 52.949806 37,975 258 420 64
2019-04-25 19:04:23 GMT 22.576859 52.968285 37,975 258 420 0
2019-04-25 19:04:14 GMT 22.580429 52.985912 37,975 258 420 64
2019-04-25 19:04:05 GMT 22.584352 53.005371 37,975 258 420 0
2019-04-25 19:03:54 GMT 22.588760 53.027309 37,975 258 420 -64
2019-04-25 19:03:42 GMT 22.593756 53.052570 38,000 258 420 -64
2019-04-25 19:03:32 GMT 22.597824 53.072903 38,000 258 420 -64
2019-04-25 19:03:10 GMT 22.606750 53.117298 37,975 258 420 0
2019-04-25 19:03:00 GMT 22.611074 53.138836 37,975 258 420 0
2019-04-25 19:02:48 GMT 22.615906 53.162842 37,975 258 420 0
2019-04-25 19:02:37 GMT 22.620338 53.185223 37,975 258 420 0
2019-04-25 19:02:01 GMT 22.635187 53.259480 37,975 258 420 0
2019-04-25 19:01:54 GMT 22.637924 53.273254 37,975 258 420 0
2019-04-25 19:01:45 GMT 22.641798 53.292744 37,975 258 420 0
2019-04-25 19:01:32 GMT 22.646896 53.318447 37,975 258 421 -64
2019-04-25 19:01:22 GMT 22.651154 53.339870 38,000 258 421 -64
2019-04-25 19:01:12 GMT 22.655045 53.359596 38,000 258 421 -64
2019-04-25 19:01:00 GMT 22.659943 53.384266 38,000 258 421 -64
2019-04-25 19:00:50 GMT 22.664291 53.406090 38,000 258 420 -64
2019-04-25 19:00:38 GMT 22.669144 53.430710 38,000 258 420 0
2019-04-25 19:00:30 GMT 22.672394 53.447140 37,975 258 420 0
2019-04-25 19:00:11 GMT 22.679901 53.484890 37,975 258 420 0
2019-04-25 19:00:07 GMT 22.681740 53.494110 38,000 258 420 -64
2019-04-25 18:56:12 GMT 22.776306 53.976528 38,000 259 421 -64
2019-04-25 18:56:01 GMT 22.781454 54.002277 37,975 258 420 -64
2019-04-25 18:55:53 GMT 22.784620 54.017895 37,975 258 420 -64
2019-04-25 18:55:50 GMT 22.785416 54.021824 37,975 258 420 0
2019-04-25 18:55:41 GMT 22.789415 54.041340 37,975 258 420 0
2019-04-25 18:55:37 GMT 22.790857 54.048309 37,975 258 420 0
2019-04-25 18:55:30 GMT 22.793930 54.063110 38,000 258 419 -64
2019-04-25 18:54:53 GMT 22.809666 54.140270 38,000 258 419 0
2019-04-25 18:54:20 GMT 22.823027 54.206287 38,000 258 419 -64
2019-04-25 18:54:04 GMT 22.829956 54.240501 38,000 258 418 0
2019-04-25 18:53:48 GMT 22.837006 54.274906 37,975 258 418 0
2019-04-25 18:53:44 GMT 22.838150 54.280602 38,000 258 418 0
2019-04-25 18:53:31 GMT 22.844238 54.310513 38,000 258 418 0
2019-04-25 18:53:12 GMT 22.851980 54.348804 37,975 258 418 0
2019-04-25 18:53:02 GMT 22.855545 54.366646 37,975 258 419 0
2019-04-25 18:52:48 GMT 22.861338 54.395496 37,975 258 419 -64
2019-04-25 18:52:41 GMT 22.864038 54.409077 38,000 258 419 -64
2019-04-25 18:52:29 GMT 22.869186 54.434757 38,000 258 420 0
2019-04-25 18:52:18 GMT 22.874046 54.458820 37,975 258 420 -64
2019-04-25 18:51:53 GMT 22.884155 54.509266 37,975 258 421 0
2019-04-25 18:51:41 GMT 22.888851 54.532574 37,975 258 421 -64
2019-04-25 18:51:26 GMT 22.895233 54.564148 38,000 258 421 0
2019-04-25 18:50:50 GMT 22.912537 54.650440 38,000 258 422 -64
2019-04-25 18:50:44 GMT 22.912537 54.650440 38,000 258 421 0
2019-04-25 18:50:33 GMT 22.917015 54.672901 38,000 258 421 64
2019-04-25 18:50:13 GMT 22.925629 54.716408 37,975 258 421 -64
2019-04-25 18:50:03 GMT 22.929611 54.736233 37,975 258 422 -64
2019-04-25 18:49:53 GMT 22.934286 54.759624 38,000 258 422 -64
2019-04-25 18:49:41 GMT 22.938446 54.780529 37,975 258 422 -64
2019-04-25 18:49:31 GMT 22.942804 54.802246 38,000 258 423 0
2019-04-25 18:48:58 GMT 22.956772 54.872692 37,975 258 423 0
2019-04-25 18:48:48 GMT 22.960373 54.890694 37,975 258 423 -64
2019-04-25 18:48:39 GMT 22.964447 54.911465 38,000 258 423 -64
2019-04-25 18:48:13 GMT 22.975346 54.966480 38,000 259 424 0
2019-04-25 18:48:04 GMT 22.978912 54.984524 37,975 259 424 0
2019-04-25 18:47:53 GMT 22.983261 55.006596 38,000 259 424 0
2019-04-25 18:47:41 GMT 22.987961 55.030518 37,975 259 425 -64
2019-04-25 18:47:30 GMT 22.992874 55.055737 38,000 259 425 -64
2019-04-25 18:46:36 GMT 23.016544 55.176392 38,000 259 427 -64
2019-04-25 18:46:29 GMT 23.019791 55.192966 38,000 259 427 -64
2019-04-25 18:45:57 GMT 23.030869 55.248596 38,000 261 427 0
2019-04-25 18:45:14 GMT 23.040333 55.339252 38,000 271 429 64
2019-04-25 18:45:06 GMT 23.040115 55.356663 37,975 271 429 64
2019-04-25 18:45:02 GMT 23.039913 55.368042 37,975 271 429 64
2019-04-25 18:44:53 GMT 23.039635 55.386505 37,975 271 429 0
2019-04-25 18:44:44 GMT 23.039383 55.403454 37,975 271 429 0
2019-04-25 18:44:41 GMT 23.039291 55.411644 38,000 271 429 -64
2019-04-25 18:44:31 GMT 23.038971 55.433567 37,975 271 429 -64
2019-04-25 18:44:22 GMT 23.038696 55.451244 38,000 271 430 -64
2019-04-25 18:44:10 GMT 23.038378 55.477295 37,975 271 430 -64
2019-04-25 18:44:00 GMT 23.038055 55.499035 38,000 271 430 0
2019-04-25 18:43:46 GMT 23.037643 55.530094 37,975 271 430 0
2019-04-25 18:43:37 GMT 23.037369 55.548122 37,975 271 429 0
2019-04-25 18:43:27 GMT 23.037027 55.569866 37,975 271 429 -64
2019-04-25 18:43:17 GMT 23.036701 55.592194 38,000 271 429 -64
2019-04-25 18:43:06 GMT 23.036316 55.614342 38,000 271 429 -64
2019-04-25 18:42:54 GMT 23.035955 55.640362 37,975 271 429 0
2019-04-25 18:42:40 GMT 23.035490 55.670422 38,000 271 429 0
2019-04-25 18:42:32 GMT 23.035217 55.688648 38,000 271 428 0
2019-04-25 18:42:22 GMT 23.034931 55.707752 37,975 271 428 0
2019-04-25 18:42:11 GMT 23.034531 55.731594 37,975 272 428 -64
2019-04-25 18:42:03 GMT 23.034164 55.751320 38,000 272 428 0
2019-04-25 18:41:41 GMT 23.033348 55.798290 37,975 272 428 0
2019-04-25 18:41:32 GMT 23.033066 55.816990 38,000 272 429 -64
2019-04-25 18:41:27 GMT 23.032883 55.826878 38,000 272 429 -64
2019-04-25 18:41:08 GMT 23.032196 55.866928 38,000 272 430 0
2019-04-25 18:40:32 GMT 23.030869 55.947525 38,000 272 430 -64
2019-04-25 18:40:10 GMT 23.030090 55.992176 37,975 272 431 -64
2019-04-25 18:38:41 GMT 23.026739 56.184998 37,975 272 432 -64
2019-04-25 18:38:29 GMT 23.026274 56.210125 38,000 272 432 -64
2019-04-25 18:37:23 GMT 23.023407 56.355221 38,000 272 436 -64
2019-04-25 18:37:12 GMT 23.022875 56.380768 38,000 272 436 -64
2019-04-25 18:36:59 GMT 23.022409 56.406097 38,000 272 435 -64
2019-04-25 18:36:45 GMT 23.021757 56.436615 38,000 272 435 -64
2019-04-25 18:36:38 GMT 23.021439 56.453796 38,000 272 434 64
2019-04-25 18:36:34 GMT 23.021255 56.463383 37,975 272 434 64
2019-04-25 18:36:22 GMT 23.020733 56.486614 37,975 272 433 64
2019-04-25 18:36:11 GMT 23.020248 56.510727 37,975 272 433 0
2019-04-25 18:36:04 GMT 23.019850 56.528728 37,975 272 433 -64
2019-04-25 18:35:50 GMT 23.019287 56.556217 38,000 272 431 64
2019-04-25 18:35:43 GMT 23.018917 56.572468 38,000 272 432 -64
2019-04-25 18:35:29 GMT 23.017986 56.613972 37,975 272 431 64
2019-04-25 18:35:25 GMT 23.017986 56.613972 37,975 272 431 64
2019-04-25 18:35:19 GMT 23.017731 56.626282 37,975 272 431 0
2019-04-25 18:35:14 GMT 23.017548 56.634922 37,975 272 431 64
2019-04-25 18:35:09 GMT 23.017273 56.647453 37,975 272 431 0
2019-04-25 18:35:03 GMT 23.017010 56.658428 37,975 272 431 0
2019-04-25 18:34:59 GMT 23.016823 56.667072 38,000 272 431 -64
2019-04-25 18:34:49 GMT 23.016312 56.689705 38,000 272 430 -64
2019-04-25 18:34:45 GMT 23.016083 56.699638 38,000 272 430 -64
2019-04-25 18:34:39 GMT 23.015808 56.712574 38,000 272 430 -64
2019-04-25 18:34:34 GMT 23.015625 56.720764 38,000 272 430 0
2019-04-25 18:34:27 GMT 23.015305 56.735397 38,000 272 430 0
2019-04-25 18:34:23 GMT 23.015100 56.745045 38,000 272 429 0
2019-04-25 18:34:18 GMT 23.014774 56.757965 37,975 272 429 0
2019-04-25 18:34:13 GMT 23.014587 56.766560 37,975 272 429 64
2019-04-25 18:34:07 GMT 23.014263 56.780750 37,975 272 428 0
2019-04-25 18:33:56 GMT 23.013657 56.805809 38,000 272 428 -64
2019-04-25 18:33:43 GMT 23.013100 56.831768 38,000 272 428 -64
2019-04-25 18:33:39 GMT 23.012878 56.840965 38,000 272 427 -64
2019-04-25 18:33:33 GMT 23.012375 56.862785 38,000 272 427 0
2019-04-25 18:33:24 GMT 23.012146 56.873074 38,000 272 427 -64
2019-04-25 18:33:13 GMT 23.011097 56.918995 37,975 272 426 64
2019-04-25 18:33:03 GMT 23.011097 56.918995 37,975 272 426 64
2019-04-25 18:32:52 GMT 23.010492 56.942444 37,975 272 426 -64
2019-04-25 18:32:48 GMT 23.010399 56.947582 37,975 272 426 0
2019-04-25 18:32:44 GMT 23.010086 56.959316 37,975 272 427 0
2019-04-25 18:32:38 GMT 23.009811 56.970005 37,975 272 427 0
2019-04-25 18:32:32 GMT 23.009537 56.981541 37,975 272 427 -64
2019-04-25 18:32:29 GMT 23.009308 56.991379 37,975 272 427 -64
2019-04-25 18:32:20 GMT 23.008863 57.009991 37,975 272 427 -64
2019-04-25 18:32:17 GMT 23.008759 57.014050 37,975 272 427 -64
2019-04-25 18:32:10 GMT 23.008392 57.031178 38,000 272 427 -64
2019-04-25 18:32:06 GMT 23.008209 57.037621 38,000 272 427 -64
2019-04-25 18:31:59 GMT 23.007792 57.054951 38,000 272 428 -64
2019-04-25 18:31:55 GMT 23.007660 57.061192 38,000 272 428 -64
2019-04-25 18:31:50 GMT 23.007374 57.072094 38,000 272 428 -64
2019-04-25 18:31:47 GMT 23.007233 57.078503 38,000 272 427 -64
2019-04-25 18:31:44 GMT 23.007048 57.084961 38,000 272 427 0
2019-04-25 18:31:37 GMT 23.006607 57.102287 38,000 272 427 -64
2019-04-25 18:31:32 GMT 23.006441 57.110241 38,000 272 427 0
2019-04-25 18:31:28 GMT 23.006208 57.119190 37,975 272 428 0
2019-04-25 18:31:24 GMT 23.005930 57.129925 37,975 272 428 0
2019-04-25 18:31:16 GMT 23.005508 57.145985 37,975 272 428 0
2019-04-25 18:31:13 GMT 23.005371 57.152660 37,975 272 428 0
2019-04-25 18:31:06 GMT 23.004906 57.169392 37,975 272 429 64
2019-04-25 18:31:00 GMT 23.004673 57.179718 37,975 272 430 -64
2019-04-25 18:30:55 GMT 23.004347 57.192638 37,975 272 431 -64
2019-04-25 18:30:52 GMT 23.004162 57.199146 37,975 272 431 -64
2019-04-25 18:30:45 GMT 23.003555 57.222900 38,000 272 432 -128
2019-04-25 18:30:41 GMT 23.003555 57.222900 38,000 272 432 -64
2019-04-25 18:30:33 GMT 23.003174 57.240917 37,975 272 433 -64
2019-04-25 18:30:29 GMT 23.003082 57.246960 37,975 272 433 -64
2019-04-25 18:30:22 GMT 23.002531 57.264557 37,975 277 435 -64
2019-04-25 18:30:18 GMT 23.002159 57.269794 37,975 277 434 -64
2019-04-25 18:30:13 GMT 23.001087 57.280170 37,975 281 436 -64
2019-04-25 18:30:09 GMT 22.999237 57.292454 37,975 282 436 -64
2019-04-25 18:30:03 GMT 22.997038 57.303364 38,000 285 438 -64
2019-04-25 18:29:58 GMT 22.993881 57.315823 37,975 288 439 -128
2019-04-25 18:29:46 GMT 22.985916 57.338997 38,000 295 442 -64
2019-04-25 18:29:35 GMT 22.976440 57.359669 37,975 298 444 0
2019-04-25 18:29:24 GMT 22.966049 57.381443 38,000 298 443 0
2019-04-25 18:29:19 GMT 22.961613 57.390697 38,000 298 443 -64
2019-04-25 18:29:14 GMT 22.955002 57.404530 38,000 298 443 0
2019-04-25 18:29:04 GMT 22.946484 57.422333 37,975 298 443 0
2019-04-25 18:28:59 GMT 22.941833 57.431980 38,000 298 444 -64
2019-04-25 18:28:53 GMT 22.936157 57.443863 38,000 298 444 0
2019-04-25 18:28:42 GMT 22.925949 57.465237 37,975 298 445 -64
2019-04-25 18:28:31 GMT 22.914963 57.488209 38,000 298 445 -64
2019-04-25 18:28:21 GMT 22.905748 57.507427 38,000 298 445 -64
2019-04-25 18:28:10 GMT 22.895599 57.528660 38,000 298 445 -64
2019-04-25 18:28:05 GMT 22.890289 57.539795 38,000 298 445 0
2019-04-25 18:27:59 GMT 22.884150 57.552692 38,000 298 445 64
2019-04-25 18:27:53 GMT 22.878609 57.564190 37,975 298 445 64
2019-04-25 18:27:49 GMT 22.875320 57.571106 37,975 298 445 64
2019-04-25 18:27:42 GMT 22.869415 57.583443 37,975 298 447 -64
2019-04-25 18:27:37 GMT 22.864655 57.593327 37,975 298 446 0
2019-04-25 18:27:27 GMT 22.854721 57.614002 38,000 298 448 -64
2019-04-25 18:27:20 GMT 22.848633 57.626736 37,975 298 448 -64
2019-04-25 18:27:16 GMT 22.844534 57.635296 37,975 298 449 -64
2019-04-25 18:27:11 GMT 22.838621 57.647705 38,000 298 449 -64
2019-04-25 18:27:05 GMT 22.832708 57.660065 38,000 298 449 -64
2019-04-25 18:26:57 GMT 22.826006 57.674053 38,000 298 450 -64
2019-04-25 18:26:54 GMT 22.823492 57.679291 38,000 298 450 -64
2019-04-25 18:26:49 GMT 22.818277 57.690075 38,000 298 450 -64
2019-04-25 18:26:44 GMT 22.813385 57.700294 38,000 298 450 -64
2019-04-25 18:26:33 GMT 22.803543 57.720772 38,000 298 451 -64
2019-04-25 18:26:23 GMT 22.793419 57.741852 37,975 298 452 0
2019-04-25 18:26:13 GMT 22.782572 57.764332 37,975 298 453 -64
2019-04-25 18:26:04 GMT 22.775345 57.779396 38,000 298 453 -64
2019-04-25 18:26:01 GMT 22.772331 57.785645 38,000 298 454 -64
2019-04-25 18:25:58 GMT 22.769398 57.791698 38,000 298 454 -64
2019-04-25 18:25:50 GMT 22.752045 57.827736 37,975 298 454 -64
2019-04-25 18:25:41 GMT 22.752045 57.827736 37,975 298 454 0
2019-04-25 18:25:32 GMT 22.744400 57.843418 37,975 298 454 -64
2019-04-25 18:25:29 GMT 22.741104 57.850307 37,975 298 454 -64
2019-04-25 18:25:23 GMT 22.735741 57.861378 37,975 298 455 -64
2019-04-25 18:25:19 GMT 22.730806 57.871449 38,000 298 455 -64
2019-04-25 18:25:14 GMT 22.725632 57.882168 38,000 298 455 -64
2019-04-25 18:25:07 GMT 22.718445 57.897099 38,000 298 455 -64
2019-04-25 18:25:01 GMT 22.712769 57.908836 38,000 298 455 -64
2019-04-25 18:24:52 GMT 22.703712 57.927601 37,975 298 455 -64
2019-04-25 18:24:35 GMT 22.687466 57.961071 38,000 298 455 -64
2019-04-25 18:24:30 GMT 22.682693 57.970959 37,975 298 455 -64
2019-04-25 18:23:54 GMT 22.647896 58.042957 38,000 298 454 -64
We lost coverage of the aircraft here for a total of 104 minutes
2019-04-25 16:39:53 GMT 18.707062 71.368172 37,975 262 485 -64
2019-04-25 16:39:47 GMT 18.709213 71.382637 37,975 262 485 0
2019-04-25 16:39:32 GMT 18.714249 71.416771 38,000 262 485 0
2019-04-25 16:39:28 GMT 18.715721 71.426811 38,000 262 485 0
2019-04-25 16:39:17 GMT 18.719446 71.452080 37,975 262 485 -64
2019-04-25 16:37:41 GMT 18.752289 71.675346 37,975 262 484 0
2019-04-25 16:37:33 GMT 18.755291 71.696075 38,000 262 484 -64
2019-04-25 16:37:22 GMT 18.758877 71.720345 38,000 262 484 0
2019-04-25 16:37:10 GMT 18.762863 71.747635 38,000 262 484 0
2019-04-25 16:36:51 GMT 18.768885 71.789360 37,975 262 484 0
2019-04-25 16:36:44 GMT 18.771606 71.808258 37,975 262 484 0
2019-04-25 16:36:36 GMT 18.774353 71.826897 37,975 262 484 0
2019-04-25 16:36:26 GMT 18.778055 71.852333 37,975 262 485 0
2019-04-25 16:36:15 GMT 18.781733 71.877602 37,975 262 485 -64
2019-04-25 16:36:01 GMT 18.786438 71.910126 38,000 262 486 -192
2019-04-25 16:35:51 GMT 18.789646 71.932335 38,025 262 486 -64
2019-04-25 16:35:40 GMT 18.793371 71.957603 37,975 262 485 448
2019-04-25 16:35:29 GMT 18.797287 71.984528 37,825 262 485 960
2019-04-25 16:35:17 GMT 18.801332 72.012383 37,650 262 486 960
2019-04-25 16:35:06 GMT 18.805252 72.039368 37,475 262 487 896
2019-04-25 16:34:54 GMT 18.809097 72.066147 37,300 262 488 1024
2019-04-25 16:34:43 GMT 18.812851 72.092041 37,125 262 489 1024
2019-04-25 16:34:29 GMT 18.817577 72.125298 36,900 262 490 1024
2019-04-25 16:34:20 GMT 18.820837 72.147964 36,725 262 491 1088
2019-04-25 16:34:00 GMT 18.827362 72.193710 36,400 262 492 1088
2019-04-25 16:33:57 GMT 18.828424 72.201050 36,350 262 492 1088
2019-04-25 16:33:41 GMT 18.833725 72.237900 36,150 262 493 1024
2019-04-25 16:33:34 GMT 18.836105 72.254578 36,000 262 494 576
2019-04-25 16:33:23 GMT 18.840042 72.282143 36,000 262 493 0
2019-04-25 16:33:11 GMT 18.844070 72.310196 36,000 262 493 0
2019-04-25 16:32:46 GMT 18.852587 72.369843 35,975 262 493 0
2019-04-25 16:32:37 GMT 18.855698 72.391464 35,975 262 493 -64
2019-04-25 16:32:25 GMT 18.859634 72.419083 35,975 262 493 -64
2019-04-25 16:32:14 GMT 18.863432 72.445946 36,000 262 493 -64
2019-04-25 16:32:02 GMT 18.867416 72.473816 36,000 262 493 0
2019-04-25 16:31:50 GMT 18.871487 72.502625 35,975 262 493 0
2019-04-25 16:31:38 GMT 18.875488 72.530693 35,975 262 493 0
2019-04-25 16:31:28 GMT 18.879120 72.556412 35,975 262 493 -64
2019-04-25 16:31:17 GMT 18.882797 72.582352 36,000 262 494 -64
2019-04-25 16:30:01 GMT 18.908340 72.764122 35,975 262 495 0
2019-04-25 16:29:54 GMT 18.910543 72.780128 36,000 262 495 0
2019-04-25 16:29:46 GMT 18.913330 72.799919 36,000 262 495 -64
2019-04-25 16:29:29 GMT 18.918736 72.838860 35,975 262 495 -64
2019-04-25 16:29:11 GMT 18.924974 72.883247 35,975 262 494 0
2019-04-25 16:28:24 GMT 18.940063 72.991837 36,000 262 494 0
2019-04-25 16:28:02 GMT 18.947506 73.045944 36,000 262 494 0
2019-04-25 16:27:51 GMT 18.951141 73.071884 36,000 262 493 0
2019-04-25 16:27:39 GMT 18.955399 73.102341 36,000 262 493 0
2019-04-25 16:27:32 GMT 18.957747 73.119255 36,000 262 493 -64
2019-04-25 16:27:23 GMT 18.960663 73.140495 35,975 262 493 0
2019-04-25 16:27:20 GMT 18.961052 73.143578 35,975 262 493 0
2019-04-25 16:27:16 GMT 18.962906 73.156685 36,000 262 494 64
2019-04-25 16:27:10 GMT 18.964462 73.168114 36,000 262 494 0
2019-04-25 16:26:59 GMT 18.967987 73.193863 36,000 262 494 0
2019-04-25 16:26:49 GMT 18.971466 73.219116 35,975 262 494 -64
2019-04-25 16:26:39 GMT 18.975128 73.245361 35,975 262 493 0
2019-04-25 16:26:28 GMT 18.978745 73.271553 35,975 262 493 0
2019-04-25 16:26:17 GMT 18.982094 73.296089 36,000 262 492 0
2019-04-25 16:26:08 GMT 18.985167 73.318459 35,975 262 492 -64
2019-04-25 16:26:05 GMT 18.985748 73.322510 35,975 262 493 0
2019-04-25 16:25:55 GMT 18.989273 73.348160 35,975 262 492 0
2019-04-25 16:25:45 GMT 18.992754 73.373589 35,975 262 492 0
2019-04-25 16:25:33 GMT 18.996105 73.398308 36,000 262 492 -64
2019-04-25 16:25:23 GMT 18.999573 73.423691 36,000 262 492 0
2019-04-25 16:25:11 GMT 19.003555 73.452675 36,000 262 492 -64
2019-04-25 16:25:00 GMT 19.007187 73.479012 36,000 262 492 -64
2019-04-25 16:24:52 GMT 19.010010 73.499664 36,000 262 491 64
2019-04-25 16:24:45 GMT 19.012167 73.515564 36,000 262 491 64
2019-04-25 16:24:40 GMT 19.013535 73.525269 35,975 262 491 64
2019-04-25 16:24:33 GMT 19.016098 73.544243 36,000 262 490 64
2019-04-25 16:24:29 GMT 19.016968 73.550865 35,975 263 490 64
2019-04-25 16:24:26 GMT 19.018265 73.560608 36,000 262 490 0
2019-04-25 16:24:20 GMT 19.020309 73.575539 35,975 262 490 0
2019-04-25 16:24:12 GMT 19.022690 73.593094 36,000 263 490 -64
2019-04-25 16:24:08 GMT 19.023712 73.600906 36,000 262 490 -64
2019-04-25 16:23:58 GMT 19.027130 73.626297 35,975 262 490 64
2019-04-25 16:23:52 GMT 19.029158 73.641258 36,000 262 492 -64
2019-04-25 16:23:48 GMT 19.030426 73.650528 35,975 262 492 -64
2019-04-25 16:23:39 GMT 19.033264 73.671425 36,000 262 491 -128
2019-04-25 16:23:36 GMT 19.033905 73.676178 35,975 263 492 64
2019-04-25 16:23:29 GMT 19.036652 73.696632 36,000 262 492 -128
2019-04-25 16:23:25 GMT 19.037445 73.702583 36,000 262 492 -64
2019-04-25 16:23:15 GMT 19.040863 73.728073 35,975 262 492 64
2019-04-25 16:23:04 GMT 19.044102 73.752121 36,000 262 492 0
2019-04-25 16:22:54 GMT 19.047546 73.777657 35,975 262 493 0
2019-04-25 16:22:44 GMT 19.050980 73.803406 36,000 262 493 -64
2019-04-25 16:22:33 GMT 19.054367 73.828224 36,000 262 493 -64
2019-04-25 16:22:23 GMT 19.057846 73.854073 36,000 262 494 0
2019-04-25 16:22:18 GMT 19.059509 73.866226 35,975 262 494 -64
2019-04-25 16:22:11 GMT 19.061234 73.879158 35,975 262 494 0
2019-04-25 16:22:00 GMT 19.064667 73.904732 36,000 263 494 0
2019-04-25 16:21:51 GMT 19.068123 73.930794 35,975 262 494 0
2019-04-25 16:21:40 GMT 19.071487 73.955887 35,975 262 494 -64
2019-04-25 16:21:34 GMT 19.073410 73.970261 36,000 262 494 -64
2019-04-25 16:21:29 GMT 19.074825 73.981033 36,000 262 494 -64
2019-04-25 16:21:19 GMT 19.078224 74.006401 36,000 263 495 -64
2019-04-25 16:21:07 GMT 19.081604 74.032013 36,000 263 495 0
2019-04-25 16:20:57 GMT 19.084900 74.056877 35,975 263 494 0
2019-04-25 16:20:47 GMT 19.088512 74.083954 35,975 262 494 -64
2019-04-25 16:20:35 GMT 19.091724 74.108376 36,000 262 494 -64
2019-04-25 16:20:24 GMT 19.095291 74.134911 35,975 263 495 0
2019-04-25 16:20:14 GMT 19.098661 74.160561 35,975 263 495 0
2019-04-25 16:20:03 GMT 19.105644 74.213295 35,975 263 496 -64
2019-04-25 16:19:52 GMT 19.105644 74.213295 35,975 263 496 -64
2019-04-25 16:19:44 GMT 19.108437 74.234421 35,975 263 496 0
2019-04-25 16:19:40 GMT 19.109802 74.244774 35,975 263 496 0
2019-04-25 16:19:32 GMT 19.115465 74.287804 35,975 263 497 -64
2019-04-25 16:19:21 GMT 19.115465 74.287804 36,000 263 497 -64
2019-04-25 16:19:11 GMT 19.119003 74.314766 36,000 263 497 -64
2019-04-25 16:18:59 GMT 19.122345 74.340065 36,000 263 497 -64
2019-04-25 16:18:49 GMT 19.125568 74.364357 36,000 263 497 0
2019-04-25 16:18:38 GMT 19.128983 74.390587 35,975 263 497 0
2019-04-25 16:18:28 GMT 19.132551 74.417740 36,000 263 496 0
2019-04-25 16:18:16 GMT 19.135948 74.443657 35,975 263 496 -64
2019-04-25 16:18:06 GMT 19.139282 74.469353 35,975 263 496 0
2019-04-25 16:17:54 GMT 19.142761 74.496231 36,000 263 496 0
2019-04-25 16:17:44 GMT 19.145828 74.519775 36,000 263 495 0
2019-04-25 16:17:33 GMT 19.149353 74.546654 36,000 263 495 0
2019-04-25 16:17:23 GMT 19.152649 74.572060 35,975 263 495 -64
2019-04-25 16:17:13 GMT 19.155945 74.597466 35,975 263 495 0
2019-04-25 16:17:01 GMT 19.159086 74.621689 35,975 263 495 0
2019-04-25 16:16:50 GMT 19.162624 74.649002 36,000 263 495 -64
2019-04-25 16:16:40 GMT 19.165833 74.673729 36,000 263 495 -64
2019-04-25 16:16:30 GMT 19.169233 74.699837 35,975 263 495 64
2019-04-25 16:16:19 GMT 19.172493 74.725212 35,975 263 494 64
2019-04-25 16:16:08 GMT 19.175903 74.751320 35,975 263 494 -64
2019-04-25 16:15:56 GMT 19.179474 74.779083 36,000 263 494 -64
2019-04-25 16:15:45 GMT 19.182816 74.804924 35,975 263 494 -64
2019-04-25 16:15:35 GMT 19.185974 74.829842 36,000 263 495 -64
2019-04-25 16:15:25 GMT 19.189224 74.855247 35,975 263 495 0
2019-04-25 16:15:13 GMT 19.192650 74.881813 35,975 263 495 0
2019-04-25 16:15:02 GMT 19.196234 74.909630 35,975 263 495 -64
2019-04-25 16:14:45 GMT 19.201355 74.949661 36,000 263 495 0
2019-04-25 16:14:42 GMT 19.202271 74.956871 36,000 263 495 0
2019-04-25 16:14:29 GMT 19.206573 74.990417 36,000 263 495 -64
2019-04-25 16:14:19 GMT 19.209412 75.012489 36,000 263 495 -64
2019-04-25 16:14:10 GMT 19.212202 75.034325 36,000 263 495 -64
2019-04-25 16:13:59 GMT 19.215271 75.058548 36,000 263 495 0
2019-04-25 16:13:48 GMT 19.218672 75.085114 36,000 263 495 -64
2019-04-25 16:13:39 GMT 19.221725 75.109360 36,000 263 495 0
2019-04-25 16:13:27 GMT 19.225098 75.135948 36,000 263 494 0
2019-04-25 16:13:15 GMT 19.228914 75.165611 35,975 263 494 -64
2019-04-25 16:13:06 GMT 19.231567 75.186684 35,975 263 494 0
2019-04-25 16:12:56 GMT 19.234634 75.210884 36,000 263 494 0
2019-04-25 16:12:43 GMT 19.238663 75.243004 35,975 263 495 -64
2019-04-25 16:12:31 GMT 19.242142 75.270325 35,975 263 495 0
2019-04-25 16:12:24 GMT 19.244293 75.287590 35,975 263 495 -64
2019-04-25 16:12:13 GMT 19.247498 75.312996 36,000 263 495 -64
2019-04-25 16:12:02 GMT 19.250839 75.339874 36,000 263 495 -64
2019-04-25 16:11:53 GMT 19.253725 75.362663 35,975 263 495 0
2019-04-25 16:11:41 GMT 19.257263 75.390984 35,975 263 495 0
2019-04-25 16:11:32 GMT 19.260223 75.414719 36,000 263 495 0
2019-04-25 16:11:20 GMT 19.263315 75.439423 36,000 263 494 -64
2019-04-25 16:11:05 GMT 19.267971 75.476723 36,000 263 494 -64
2019-04-25 16:11:00 GMT 19.269699 75.490395 36,000 263 494 0
2019-04-25 16:10:49 GMT 19.273178 75.518105 36,000 263 493 -64
2019-04-25 16:10:36 GMT 19.276520 75.544884 36,000 263 493 0
2019-04-25 16:10:27 GMT 19.279564 75.569008 36,000 263 493 0
2019-04-25 16:10:15 GMT 19.282776 75.594780 35,975 263 492 0
2019-04-25 16:10:05 GMT 19.285894 75.620049 35,975 263 492 0
2019-04-25 16:09:54 GMT 19.289291 75.647263 36,000 263 492 -64
2019-04-25 16:09:43 GMT 19.292318 75.672081 36,000 263 492 -64
2019-04-25 16:09:34 GMT 19.295242 75.695702 36,000 263 493 -64
2019-04-25 16:09:22 GMT 19.298416 75.721718 35,975 263 493 0
2019-04-25 16:09:12 GMT 19.301441 75.746536 36,000 263 493 0
2019-04-25 16:09:02 GMT 19.304581 75.772118 36,000 263 493 -64
2019-04-25 16:08:48 GMT 19.308517 75.804588 35,975 263 492 0
2019-04-25 16:08:40 GMT 19.310753 75.822990 35,975 263 492 0
2019-04-25 16:08:24 GMT 19.315409 75.861198 35,975 263 493 0
2019-04-25 16:08:14 GMT 19.318249 75.884567 35,975 263 492 -64
2019-04-25 16:08:09 GMT 19.320017 75.899399 35,975 263 492 -64
2019-04-25 16:07:48 GMT 19.326141 75.949860 36,000 263 492 0
2019-04-25 16:07:25 GMT 19.332733 76.004837 35,975 263 492 0
2019-04-25 16:07:15 GMT 19.335342 76.026321 36,000 263 492 -64
2019-04-25 16:06:53 GMT 19.342081 76.082069 36,000 263 492 0
2019-04-25 16:06:43 GMT 19.344362 76.101196 35,975 263 492 -64
2019-04-25 16:06:25 GMT 19.349854 76.146927 35,975 263 492 0
2019-04-25 16:06:21 GMT 19.350740 76.154327 36,000 263 493 0
2019-04-25 16:05:55 GMT 19.358143 76.216553 36,000 263 492 -64
2019-04-25 16:05:30 GMT 19.365509 76.278465 35,975 263 492 -64
2019-04-25 16:05:19 GMT 19.368668 76.305244 35,975 263 492 0
2019-04-25 16:05:08 GMT 19.371460 76.329185 36,000 264 492 0
2019-04-25 16:04:58 GMT 19.374435 76.354492 35,975 264 492 0
2019-04-25 16:04:23 GMT 19.383980 76.436432 36,000 264 492 0
2019-04-25 16:03:59 GMT 19.390963 76.495651 35,975 263 492 -64
2019-04-25 16:03:52 GMT 19.393057 76.512383 36,000 263 492 -64
2019-04-25 16:03:44 GMT 19.395199 76.532013 36,000 266 492 0
2019-04-25 16:03:32 GMT 19.397154 76.559921 35,975 268 493 -64
2019-04-25 16:03:21 GMT 19.397804 76.585495 35,975 270 494 -64
2019-04-25 16:03:11 GMT 19.397387 76.612556 36,000 273 494 -64
2019-04-25 16:03:01 GMT 19.396130 76.634781 36,000 275 495 -64
2019-04-25 16:02:50 GMT 19.393753 76.660583 35,975 277 495 -64
2019-04-25 16:02:40 GMT 19.390915 76.687019 35,975 277 495 0
2019-04-25 16:02:28 GMT 19.388168 76.713287 35,975 277 495 0
2019-04-25 16:02:18 GMT 19.385563 76.737801 36,000 277 495 0
2019-04-25 16:02:07 GMT 19.382629 76.765495 35,975 277 495 0
2019-04-25 16:01:57 GMT 19.380022 76.790291 36,000 277 494 -64
2019-04-25 16:01:45 GMT 19.377462 76.815308 35,975 277 495 0
2019-04-25 16:01:34 GMT 19.374855 76.842323 35,975 276 495 0
2019-04-25 16:01:25 GMT 19.372284 76.869522 36,000 276 495 0
2019-04-25 16:01:12 GMT 19.369827 76.895805 36,000 276 495 0
2019-04-25 16:01:00 GMT 19.367111 76.924507 36,000 276 495 0
2019-04-25 16:00:50 GMT 19.364777 76.949074 36,000 276 495 -64
2019-04-25 16:00:41 GMT 19.362427 76.973907 35,975 276 495 -64
2019-04-25 16:00:29 GMT 19.360004 76.999428 36,000 276 495 -64
2019-04-25 16:00:18 GMT 19.357590 77.025246 35,975 276 495 0
2019-04-25 16:00:09 GMT 19.355072 77.051285 36,000 276 495 0
2019-04-25 15:59:57 GMT 19.352554 77.077774 35,975 276 495 0
2019-04-25 15:59:46 GMT 19.350182 77.102547 36,000 276 495 -64
2019-04-25 15:59:35 GMT 19.347610 77.129318 35,975 276 495 0
2019-04-25 15:59:26 GMT 19.345156 77.154587 36,000 276 495 -64
2019-04-25 15:59:15 GMT 19.342733 77.179657 35,975 276 495 0
2019-04-25 15:59:04 GMT 19.340286 77.205437 35,975 276 495 -64
2019-04-25 15:58:43 GMT 19.333517 77.275581 36,000 276 495 0
2019-04-25 15:58:24 GMT 19.330765 77.303780 35,975 276 495 0
2019-04-25 15:58:12 GMT 19.328339 77.328842 35,975 276 495 -64
2019-04-25 15:58:02 GMT 19.325912 77.354393 36,000 276 495 0
2019-04-25 15:57:52 GMT 19.323349 77.380875 35,975 276 495 0
2019-04-25 15:57:41 GMT 19.320923 77.405937 36,000 276 495 -64
2019-04-25 15:57:27 GMT 19.317627 77.439636 36,000 276 495 0
2019-04-25 15:57:19 GMT 19.315842 77.457977 36,000 276 495 -64
2019-04-25 15:57:08 GMT 19.313267 77.484726 36,000 276 495 -64
2019-04-25 15:56:26 GMT 19.303118 77.587746 36,000 276 495 0
We lost coverage of the aircraft here for a total of 160 minutes
2019-04-25 13:16:48 GMT 9.423290 97.121323 35,975 316 507 -64
2019-04-25 13:16:44 GMT 9.416061 97.128448 36,000 316 506 -64
2019-04-25 13:16:16 GMT 9.369141 97.174774 36,000 316 504 -64
2019-04-25 13:16:12 GMT 9.361283 97.182549 36,000 316 504 0
2019-04-25 13:15:57 GMT 9.335724 97.207779 35,975 316 504 0
2019-04-25 13:15:39 GMT 9.308167 97.234970 36,000 316 503 0
2019-04-25 13:15:26 GMT 9.287125 97.255714 35,975 316 502 0
2019-04-25 13:15:21 GMT 9.275813 97.266891 35,975 316 501 -64
2019-04-25 13:15:05 GMT 9.251559 97.290848 36,000 316 501 -64
2019-04-25 13:14:57 GMT 9.238449 97.303810 36,000 316 501 -64
2019-04-25 13:14:36 GMT 9.202772 97.339058 36,000 316 500 0
2019-04-25 13:14:26 GMT 9.185827 97.355774 36,000 316 500 0
2019-04-25 13:14:16 GMT 9.170700 97.370659 35,975 316 500 0
2019-04-25 13:14:07 GMT 9.152756 97.388351 35,975 316 501 0
2019-04-25 13:13:55 GMT 9.126434 97.414284 36,000 316 502 -64
2019-04-25 13:13:40 GMT 9.109726 97.430717 36,000 316 503 -64
2019-04-25 13:13:30 GMT 9.091512 97.448685 35,975 316 504 -64
2019-04-25 13:13:16 GMT 9.069726 97.470085 36,000 316 504 -64
2019-04-25 13:12:58 GMT 9.029598 97.509674 36,000 316 504 0
2019-04-25 13:12:42 GMT 9.012405 97.526657 35,975 316 504 -64
2019-04-25 13:12:32 GMT 8.994324 97.544441 35,975 316 504 0
2019-04-25 13:12:20 GMT 8.974713 97.563705 35,975 316 504 0
2019-04-25 13:12:10 GMT 8.958847 97.579353 36,000 316 504 -64
2019-04-25 13:12:00 GMT 8.940869 97.597000 36,000 316 505 -64
2019-04-25 13:11:48 GMT 8.922913 97.614693 36,000 316 506 0
2019-04-25 13:11:37 GMT 8.904605 97.632706 36,000 316 505 0
2019-04-25 13:11:28 GMT 8.886822 97.650177 35,975 316 506 0
2019-04-25 13:11:16 GMT 8.869365 97.667366 36,000 316 505 0
2019-04-25 13:11:06 GMT 8.850357 97.686005 35,975 316 506 0
2019-04-25 13:10:55 GMT 8.825327 97.710602 35,975 316 507 0
2019-04-25 13:10:40 GMT 8.808334 97.727303 36,000 316 507 -64
2019-04-25 13:10:29 GMT 8.787945 97.747299 35,975 316 507 -64
2019-04-25 13:10:18 GMT 8.771745 97.763214 36,000 316 507 0
2019-04-25 13:10:07 GMT 8.751663 97.782928 35,975 316 508 -64
2019-04-25 13:09:58 GMT 8.736465 97.797829 36,000 316 508 -64
2019-04-25 13:09:46 GMT 8.717194 97.816727 35,975 316 508 -64
2019-04-25 13:09:35 GMT 8.698751 97.834816 36,000 316 508 -64
2019-04-25 13:09:23 GMT 8.678650 97.854523 35,975 316 508 0
2019-04-25 13:09:10 GMT 8.654297 97.878410 36,000 316 508 0
2019-04-25 13:09:03 GMT 8.644332 97.888229 36,000 316 509 0
2019-04-25 13:08:53 GMT 8.626735 97.905472 36,000 316 509 -64
2019-04-25 13:08:43 GMT 8.608246 97.923561 35,975 316 509 -64
2019-04-25 13:08:31 GMT 8.589615 97.941856 36,000 316 510 0
2019-04-25 13:08:20 GMT 8.571757 97.959358 36,000 316 511 0
2019-04-25 13:08:09 GMT 8.553462 97.977303 35,975 316 511 0
2019-04-25 13:07:59 GMT 8.527672 98.002640 35,975 316 510 -64
2019-04-25 13:07:44 GMT 8.508179 98.021790 36,000 316 510 -64
2019-04-25 13:07:33 GMT 8.491241 98.038452 35,975 316 510 0
2019-04-25 13:07:23 GMT 8.472977 98.056419 36,000 316 509 0
2019-04-25 13:07:10 GMT 8.452862 98.076233 36,000 316 509 0
2019-04-25 13:07:00 GMT 8.435917 98.092850 36,000 316 509 0
2019-04-25 13:06:51 GMT 8.419345 98.109093 36,000 316 509 0
2019-04-25 13:06:39 GMT 8.399374 98.128746 35,975 316 510 0
2019-04-25 13:06:28 GMT 8.382801 98.145035 35,975 316 509 0
2019-04-25 13:06:18 GMT 8.364832 98.162651 36,000 316 509 -64
2019-04-25 13:06:08 GMT 8.346490 98.180550 36,000 316 509 -64
2019-04-25 13:05:57 GMT 8.327869 98.198830 36,000 316 509 -64
2019-04-25 13:05:45 GMT 8.308923 98.217392 36,000 316 508 -64
2019-04-25 13:05:34 GMT 8.290674 98.235245 36,000 316 507 -64
2019-04-25 13:05:24 GMT 8.273822 98.251724 36,000 316 507 -64
2019-04-25 13:05:13 GMT 8.255946 98.269203 35,975 316 507 0
2019-04-25 13:05:03 GMT 8.238070 98.286674 36,000 316 507 -128
2019-04-25 13:04:53 GMT 8.219915 98.304482 35,975 316 507 -64
2019-04-25 13:04:41 GMT 8.201523 98.322472 36,000 316 507 -128
2019-04-25 13:04:31 GMT 8.175110 98.348213 36,000 316 509 0
2019-04-25 13:04:16 GMT 8.158000 98.364952 35,975 316 509 256
2019-04-25 13:03:55 GMT 8.112938 98.408989 35,725 316 509 768
2019-04-25 13:03:38 GMT 8.094086 98.427353 35,600 316 509 704
2019-04-25 13:03:27 GMT 8.067902 98.452866 35,400 316 510 832
2019-04-25 13:03:13 GMT 8.041077 98.479118 35,225 316 511 832
2019-04-25 13:02:56 GMT 8.023883 98.495888 35,075 316 512 896
2019-04-25 13:02:46 GMT 8.005600 98.513702 34,925 316 513 896
2019-04-25 13:02:36 GMT 7.987340 98.531548 34,775 316 514 960
2019-04-25 13:02:24 GMT 7.969025 98.549461 34,600 316 514 896
2019-04-25 13:02:14 GMT 7.950657 98.567390 34,450 316 515 960
2019-04-25 13:02:04 GMT 7.932266 98.585304 34,300 316 516 832
2019-04-25 13:01:53 GMT 7.914579 98.602577 34,200 316 516 640
2019-04-25 13:01:42 GMT 7.895828 98.620872 34,075 316 516 640
2019-04-25 13:01:32 GMT 7.877430 98.638809 34,000 316 516 320
2019-04-25 13:01:20 GMT 7.857376 98.658386 34,000 316 514 -64
2019-04-25 13:01:10 GMT 7.839071 98.676262 34,000 316 514 0
2019-04-25 13:00:59 GMT 7.820755 98.694099 33,975 316 513 0
2019-04-25 13:00:48 GMT 7.802673 98.711784 33,975 316 513 -64
2019-04-25 13:00:35 GMT 7.782370 98.731667 34,000 316 513 -64
2019-04-25 13:00:25 GMT 7.763763 98.749908 33,975 316 514 -64
2019-04-25 13:00:14 GMT 7.745175 98.768135 33,975 316 514 -64
2019-04-25 13:00:04 GMT 7.726740 98.786171 34,000 316 514 0
2019-04-25 12:59:52 GMT 7.708957 98.803551 33,975 316 514 64
2019-04-25 12:59:41 GMT 7.690197 98.821930 33,975 316 513 -64
2019-04-25 12:59:31 GMT 7.671343 98.840302 34,000 316 513 -64
2019-04-25 12:59:20 GMT 7.654083 98.857170 33,975 316 514 0
2019-04-25 12:59:10 GMT 7.635777 98.875015 34,000 316 514 -64
2019-04-25 12:58:59 GMT 7.617622 98.892769 34,000 316 514 -64
2019-04-25 12:58:49 GMT 7.599513 98.910477 34,000 316 514 0
2019-04-25 12:58:37 GMT 7.580660 98.928856 34,000 316 514 0
2019-04-25 12:58:28 GMT 7.562178 98.946899 34,000 316 514 -64
2019-04-25 12:58:17 GMT 7.535568 98.972801 33,975 316 515 0
2019-04-25 12:58:00 GMT 7.516708 98.991196 34,000 316 516 0
2019-04-25 12:57:48 GMT 7.495190 99.012154 33,975 316 516 -64
2019-04-25 12:57:37 GMT 7.477432 99.029411 34,000 316 517 -64
2019-04-25 12:57:29 GMT 7.461227 99.045197 34,000 316 517 -64
2019-04-25 12:57:18 GMT 7.442276 99.063675 34,000 316 517 -64
2019-04-25 12:57:07 GMT 7.424377 99.081131 33,975 316 516 -64
2019-04-25 12:56:55 GMT 7.405197 99.099937 34,000 316 515 -64
2019-04-25 12:56:44 GMT 7.386118 99.118507 34,000 316 515 -64
2019-04-25 12:56:35 GMT 7.368614 99.135559 34,000 316 514 -64
2019-04-25 12:56:23 GMT 7.350459 99.153267 33,975 316 514 0
2019-04-25 12:56:13 GMT 7.331818 99.171486 34,000 316 514 0
2019-04-25 12:56:03 GMT 7.313822 99.188972 33,975 316 513 0
2019-04-25 12:55:50 GMT 7.293665 99.208580 33,975 316 512 0
2019-04-25 12:55:42 GMT 7.277481 99.224373 33,975 316 511 -64
2019-04-25 12:55:31 GMT 7.258565 99.242821 34,000 316 511 -64
2019-04-25 12:54:42 GMT 7.177471 99.321808 34,000 316 511 0
2019-04-25 12:54:39 GMT 7.172516 99.326599 34,000 316 511 0
2019-04-25 12:53:37 GMT 7.064438 99.432091 33,975 316 511 0
2019-04-25 12:53:34 GMT 7.059723 99.436790 33,975 315 511 0
2019-04-25 12:53:31 GMT 7.056528 99.440002 33,975 315 511 0
2019-04-25 12:52:58 GMT 7.003235 99.495911 34,000 313 512 -64
2019-04-25 12:52:47 GMT 6.985117 99.515816 33,975 313 513 0
2019-04-25 12:52:37 GMT 6.969269 99.533340 33,975 313 513 0
2019-04-25 12:51:50 GMT 6.893600 99.617043 34,000 313 516 -64
2019-04-25 12:51:43 GMT 6.882614 99.629143 34,000 313 516 0
2019-04-25 12:51:17 GMT 6.839362 99.676918 33,975 313 515 -64
2019-04-25 12:51:11 GMT 6.830377 99.686867 34,000 313 516 -64
2019-04-25 12:51:00 GMT 6.813665 99.705376 33,975 313 516 -64
2019-04-25 12:50:49 GMT 6.794672 99.726357 34,000 313 516 -64
2019-04-25 12:50:39 GMT 6.778702 99.743942 34,000 313 516 -64
2019-04-25 12:50:35 GMT 6.772094 99.751221 34,000 313 516 -64
2019-04-25 12:50:28 GMT 6.761480 99.762962 34,000 313 516 0
2019-04-25 12:50:24 GMT 6.754404 99.770821 34,000 313 516 64
2019-04-25 12:50:17 GMT 6.743138 99.783279 33,975 313 515 0
2019-04-25 12:50:13 GMT 6.736542 99.790543 33,975 313 515 64
2019-04-25 12:50:06 GMT 6.726426 99.801743 33,975 313 515 -64
2019-04-25 12:50:03 GMT 6.719193 99.809723 34,000 313 515 -64
2019-04-25 12:49:56 GMT 6.710040 99.819839 34,000 313 515 -64
2019-04-25 12:49:52 GMT 6.701008 99.829781 34,000 313 516 -64
2019-04-25 12:49:45 GMT 6.692676 99.839012 34,000 313 516 0
2019-04-25 12:49:41 GMT 6.683970 99.848625 33,975 313 515 0
2019-04-25 12:49:35 GMT 6.675637 99.857864 33,975 313 515 64
2019-04-25 12:49:27 GMT 6.661377 99.873680 34,000 313 514 0
2019-04-25 12:49:24 GMT 6.657994 99.877419 34,000 313 514 0
2019-04-25 12:49:13 GMT 6.641003 99.896217 34,000 313 515 0
2019-04-25 12:49:02 GMT 6.624011 99.915070 34,000 312 514 -64
2019-04-25 12:48:32 GMT 6.576233 99.968140 34,000 313 514 -64
2019-04-25 12:48:29 GMT 6.571267 99.973640 34,000 313 514 -64
2019-04-25 12:48:12 GMT 6.543549 100.004356 34,000 313 514 0
2019-04-25 12:48:08 GMT 6.537284 100.011292 34,000 313 515 -64
2019-04-25 12:47:56 GMT 6.518384 100.032219 34,000 313 515 64
2019-04-25 12:47:47 GMT 6.503403 100.048721 33,975 313 515 64
2019-04-25 12:47:36 GMT 6.485458 100.068596 33,975 313 514 -64
2019-04-25 12:47:25 GMT 6.467363 100.087959 34,000 318 514 -64
2019-04-25 12:47:14 GMT 6.447922 100.104492 33,975 325 513 0
2019-04-25 12:46:50 GMT 6.397488 100.131577 33,975 344 514 -128
2019-04-25 12:46:42 GMT 6.378479 100.137123 34,000 348 513 -64
2019-04-25 12:46:28 GMT 6.345442 100.143745 34,000 349 515 -64
2019-04-25 12:46:20 GMT 6.328544 100.147057 34,000 349 515 -64
2019-04-25 12:46:10 GMT 6.303639 100.151932 34,000 349 515 0
2019-04-25 12:45:59 GMT 6.279419 100.156677 33,975 349 515 0
2019-04-25 12:45:48 GMT 6.252850 100.161880 33,975 349 515 0
2019-04-25 12:45:37 GMT 6.226730 100.167007 34,000 349 515 -64
2019-04-25 12:45:26 GMT 6.201130 100.172012 33,975 349 515 -64
2019-04-25 12:45:20 GMT 6.185629 100.175041 34,000 349 514 -64
2019-04-25 12:45:15 GMT 6.175806 100.176987 34,000 349 514 -64
2019-04-25 12:45:08 GMT 6.158442 100.180443 34,000 349 513 0
2019-04-25 12:45:04 GMT 6.149780 100.182137 34,000 350 513 64
2019-04-25 12:44:57 GMT 6.132699 100.185371 34,000 350 513 0
2019-04-25 12:44:54 GMT 6.125931 100.186653 34,000 350 512 64
2019-04-25 12:44:47 GMT 6.109329 100.189774 33,975 350 511 64
2019-04-25 12:44:43 GMT 6.099972 100.191521 33,975 350 512 128
2019-04-25 12:44:36 GMT 6.081724 100.194931 33,975 350 512 128
2019-04-25 12:44:32 GMT 6.074741 100.196259 33,975 350 512 64
2019-04-25 12:44:22 GMT 6.050125 100.200897 33,975 350 514 -64
2019-04-25 12:44:14 GMT 6.029846 100.204720 33,975 350 517 -128
2019-04-25 12:44:11 GMT 6.025131 100.205650 34,000 349 517 -192
2019-04-25 12:44:03 GMT 6.003433 100.209839 34,025 350 519 -64
2019-04-25 12:43:52 GMT 5.977075 100.214729 34,000 350 519 -64
2019-04-25 12:43:49 GMT 5.972838 100.215530 34,000 350 519 0
2019-04-25 12:43:38 GMT 5.948166 100.220078 34,000 350 518 -64
2019-04-25 12:43:28 GMT 5.919983 100.225342 33,975 350 517 64
2019-04-25 12:43:16 GMT 5.893746 100.230263 33,975 350 517 64
2019-04-25 12:43:05 GMT 5.867304 100.235329 33,975 350 517 -64
2019-04-25 12:42:54 GMT 5.841794 100.240158 33,975 350 517 -64
2019-04-25 12:42:45 GMT 5.822381 100.243805 34,000 350 518 -64
2019-04-25 12:42:32 GMT 5.789702 100.249962 34,000 350 519 -64
2019-04-25 12:42:24 GMT 5.771221 100.253464 34,000 350 519 -64
2019-04-25 12:42:20 GMT 5.745151 100.258438 34,000 351 520 64
2019-04-25 12:42:13 GMT 5.745151 100.258438 34,000 350 519 64
2019-04-25 12:42:09 GMT 5.736167 100.260139 34,000 350 518 64
2019-04-25 12:42:02 GMT 5.719849 100.263283 33,975 350 518 64
2019-04-25 12:41:58 GMT 5.710191 100.265114 33,975 350 517 64
2019-04-25 12:41:52 GMT 5.695527 100.267860 33,975 350 518 64
2019-04-25 12:41:47 GMT 5.684418 100.269981 33,975 350 518 0
2019-04-25 12:41:41 GMT 5.669769 100.272774 33,975 350 518 0
2019-04-25 12:41:37 GMT 5.660339 100.274544 33,975 350 518 -64
2019-04-25 12:41:30 GMT 5.643993 100.277664 34,000 350 518 -64
2019-04-25 12:41:27 GMT 5.634293 100.279480 34,000 350 520 -64
2019-04-25 12:41:19 GMT 5.619095 100.282364 34,000 350 520 0
2019-04-25 12:41:15 GMT 5.598633 100.286179 34,000 351 520 64
2019-04-25 12:41:08 GMT 5.592693 100.287178 34,000 352 521 0
2019-04-25 12:41:04 GMT 5.580460 100.288879 34,000 354 521 -64
2019-04-25 12:40:58 GMT 5.567694 100.290306 34,000 356 520 0
2019-04-25 12:40:53 GMT 5.554660 100.291397 33,975 357 521 64
2019-04-25 12:40:47 GMT 5.541412 100.292091 33,975 359 520 0
2019-04-25 12:40:41 GMT 5.527613 100.292389 33,975 0 520 64
2019-04-25 12:40:35 GMT 5.513397 100.292236 33,975 1 519 0
2019-04-25 12:40:32 GMT 5.503784 100.291954 34,000 7 517 0
2019-04-25 12:40:25 GMT 5.489580 100.291115 34,000 4 518 -128
2019-04-25 12:40:20 GMT 5.477104 100.289978 34,000 7 517 0
2019-04-25 12:40:15 GMT 5.464462 100.288513 34,000 7 516 0
2019-04-25 12:40:09 GMT 5.450429 100.286469 34,000 8 516 0
2019-04-25 12:40:04 GMT 5.438093 100.284576 34,000 8 517 0
2019-04-25 12:39:59 GMT 5.425291 100.282639 33,975 8 517 0
2019-04-25 12:39:53 GMT 5.413374 100.280838 33,975 8 517 64
2019-04-25 12:39:47 GMT 5.399368 100.278687 33,975 8 518 0
2019-04-25 12:39:43 GMT 5.388142 100.277000 33,975 8 518 64
2019-04-25 12:39:37 GMT 5.373642 100.274826 33,975 8 518 64
2019-04-25 12:39:32 GMT 5.361980 100.273026 33,975 8 519 0
2019-04-25 12:39:27 GMT 5.347176 100.270798 34,000 8 519 0
2019-04-25 12:39:21 GMT 5.336655 100.269279 33,975 7 520 0
2019-04-25 12:39:14 GMT 5.315986 100.267105 33,975 4 521 0
2019-04-25 12:39:11 GMT 5.311386 100.266769 33,975 3 521 0
2019-04-25 12:39:03 GMT 5.289870 100.265778 33,975 0 523 -64
2019-04-25 12:38:52 GMT 5.263615 100.266106 33,975 358 523 -128
2019-04-25 12:38:49 GMT 5.259286 100.266342 34,000 357 523 -128
2019-04-25 12:38:42 GMT 5.242294 100.267578 34,000 355 523 -192
2019-04-25 12:38:39 GMT 5.233589 100.268524 34,000 353 524 -192
2019-04-25 12:38:33 GMT 5.218414 100.270638 34,025 351 523 -128
2019-04-25 12:38:28 GMT 5.207613 100.272362 34,025 351 522 64
2019-04-25 12:38:20 GMT 5.186059 100.275909 33,975 351 522 384
2019-04-25 12:38:17 GMT 5.181519 100.276642 33,950 351 522 576
2019-04-25 12:38:12 GMT 5.167145 100.278969 33,900 351 521 768
2019-04-25 12:38:06 GMT 5.156359 100.280739 33,850 351 521 832
2019-04-25 12:37:55 GMT 5.129591 100.285149 33,675 351 522 960
2019-04-25 12:37:45 GMT 5.104889 100.289116 33,500 351 523 1024
2019-04-25 12:37:34 GMT 5.078934 100.293304 33,350 351 524 960
2019-04-25 12:37:23 GMT 5.051756 100.297745 33,175 351 524 1024
2019-04-25 12:37:19 GMT 5.026474 100.301872 32,825 351 525 1152
2019-04-25 12:37:12 GMT 5.026474 100.301872 33,000 351 525 1152
2019-04-25 12:37:07 GMT 5.010790 100.304420 32,875 351 526 1152
2019-04-25 12:37:02 GMT 5.001107 100.306030 32,825 351 527 1088
2019-04-25 12:36:56 GMT 4.987560 100.308205 32,700 351 528 1088
2019-04-25 12:36:51 GMT 4.975922 100.310051 32,625 351 528 1088
2019-04-25 12:36:46 GMT 4.959908 100.312660 32,525 351 529 1280
2019-04-25 12:36:40 GMT 4.948975 100.314438 32,425 351 529 1216
2019-04-25 12:36:33 GMT 4.928299 100.317818 32,275 351 531 960
2019-04-25 12:36:30 GMT 4.923458 100.318581 32,250 351 531 640
2019-04-25 12:36:25 GMT 4.907863 100.321136 32,200 351 531 576
2019-04-25 12:36:20 GMT 4.896423 100.323006 32,150 351 530 640
2019-04-25 12:36:14 GMT 4.881866 100.325424 32,100 351 530 832
2019-04-25 12:36:09 GMT 4.869690 100.327431 32,025 351 530 832
2019-04-25 12:36:03 GMT 4.855352 100.329803 31,950 351 530 768
2019-04-25 12:35:58 GMT 4.843964 100.331665 31,900 351 530 704
2019-04-25 12:35:51 GMT 4.828631 100.334206 31,825 351 530 768
2019-04-25 12:35:47 GMT 4.816727 100.336182 31,750 351 530 832
2019-04-25 12:35:40 GMT 4.803177 100.338417 31,700 351 530 704
2019-04-25 12:35:36 GMT 4.790039 100.340553 31,625 351 529 704
2019-04-25 12:35:31 GMT 4.777191 100.342682 31,575 351 529 768
2019-04-25 12:35:24 GMT 4.762201 100.345192 31,500 351 528 640
2019-04-25 12:35:20 GMT 4.751075 100.347038 31,475 351 527 512
2019-04-25 12:35:14 GMT 4.736085 100.349457 31,425 351 526 448
2019-04-25 12:35:09 GMT 4.725677 100.351120 31,400 351 525 384
2019-04-25 12:35:03 GMT 4.709550 100.353760 31,350 351 524 448
2019-04-25 12:34:57 GMT 4.697754 100.355682 31,300 351 524 576
2019-04-25 12:34:52 GMT 4.682831 100.358109 31,225 351 523 896
2019-04-25 12:34:47 GMT 4.673264 100.359688 31,175 351 523 1024
2019-04-25 12:34:43 GMT 4.663651 100.361275 31,100 351 524 1024
2019-04-25 12:34:39 GMT 4.655736 100.362572 31,050 351 524 896
2019-04-25 12:34:36 GMT 4.645889 100.364159 31,000 351 523 640
2019-04-25 12:34:28 GMT 4.628586 100.366997 30,975 351 521 256
2019-04-25 12:34:24 GMT 4.619522 100.368484 30,950 351 521 256
2019-04-25 12:34:21 GMT 4.612582 100.369576 30,950 351 520 256
2019-04-25 12:34:17 GMT 4.602573 100.371185 30,925 351 519 320
2019-04-25 12:34:13 GMT 4.594008 100.372612 30,900 351 518 512
2019-04-25 12:34:10 GMT 4.586885 100.373749 30,875 351 517 768
2019-04-25 12:34:06 GMT 4.576923 100.375359 30,825 351 517 832
2019-04-25 12:34:00 GMT 4.561747 100.377815 30,750 351 517 640
2019-04-25 12:33:56 GMT 4.550342 100.379662 30,700 351 516 576
2019-04-25 12:33:53 GMT 4.542526 100.380966 30,675 351 516 512
2019-04-25 12:33:49 GMT 4.536392 100.381943 30,675 351 515 512
2019-04-25 12:33:42 GMT 4.517243 100.385063 30,600 351 514 640
2019-04-25 12:33:39 GMT 4.511564 100.385963 30,575 351 514 768
2019-04-25 12:33:34 GMT 4.499084 100.387993 30,500 351 514 896
2019-04-25 12:33:31 GMT 4.489870 100.389465 30,450 351 514 896
2019-04-25 12:33:28 GMT 4.485901 100.390137 30,425 351 513 832
2019-04-25 12:33:20 GMT 4.464918 100.393539 30,350 351 512 448
2019-04-25 12:33:17 GMT 4.461148 100.394112 30,325 351 512 448
2019-04-25 12:33:12 GMT 4.445646 100.396667 30,275 351 511 576
2019-04-25 12:33:06 GMT 4.435358 100.398323 30,250 351 510 512
2019-04-25 12:33:00 GMT 4.421539 100.400604 30,200 351 509 576
2019-04-25 12:32:56 GMT 4.410592 100.402397 30,125 351 508 704
2019-04-25 12:32:48 GMT 4.385407 100.406471 30,000 351 507 896
2019-04-25 12:32:40 GMT 4.371643 100.408707 29,925 351 507 768
2019-04-25 12:32:37 GMT 4.364685 100.409828 29,900 351 507 768
2019-04-25 12:32:34 GMT 4.360016 100.410568 29,875 351 506 704
2019-04-25 12:32:29 GMT 4.346558 100.412758 29,800 351 505 640
2019-04-25 12:32:24 GMT 4.335892 100.414528 29,775 351 505 576
2019-04-25 12:32:15 GMT 4.314834 100.418022 29,675 351 504 896
2019-04-25 12:32:07 GMT 4.296616 100.420998 29,550 351 503 960
2019-04-25 12:32:02 GMT 4.285950 100.422722 29,475 351 503 1024
2019-04-25 12:31:54 GMT 4.261047 100.426819 29,325 351 503 832
2019-04-25 12:31:46 GMT 4.246961 100.429100 29,250 351 502 832
2019-04-25 12:31:41 GMT 4.236812 100.430763 29,200 351 502 832
2019-04-25 12:31:35 GMT 4.222102 100.433128 29,100 351 501 1024
2019-04-25 12:31:30 GMT 4.211746 100.434822 29,025 351 501 1024
2019-04-25 12:31:23 GMT 4.197289 100.437202 28,925 351 501 960
2019-04-25 12:31:19 GMT 4.187851 100.438736 28,900 351 501 960
2019-04-25 12:31:14 GMT 4.173157 100.441063 28,775 351 500 960
2019-04-25 12:31:11 GMT 4.166245 100.442177 28,725 351 500 960
2019-04-25 12:31:08 GMT 4.162841 100.442741 28,725 351 500 960
2019-04-25 12:31:03 GMT 4.147246 100.445297 28,625 351 499 768
2019-04-25 12:30:58 GMT 4.138075 100.446815 28,575 351 498 832
2019-04-25 12:30:51 GMT 4.123215 100.449257 28,500 351 498 832
2019-04-25 12:30:47 GMT 4.112732 100.450974 28,425 351 497 832
2019-04-25 12:30:39 GMT 4.092224 100.454330 28,325 351 496 832
2019-04-25 12:30:36 GMT 4.088311 100.454956 28,300 351 496 832
2019-04-25 12:30:31 GMT 4.074005 100.457306 28,225 351 495 768
2019-04-25 12:30:27 GMT 4.066059 100.458603 28,200 351 494 768
2019-04-25 12:30:23 GMT 4.056981 100.460075 28,150 351 494 896
2019-04-25 12:30:20 GMT 4.049973 100.461220 28,100 351 494 960
2019-04-25 12:30:15 GMT 4.040451 100.462799 28,025 351 493 1024
2019-04-25 12:30:11 GMT 4.032076 100.464149 27,975 351 493 1088
2019-04-25 12:30:07 GMT 4.019879 100.466133 27,900 351 493 896
2019-04-25 12:30:04 GMT 4.015782 100.466797 27,875 351 492 832
2019-04-25 12:30:01 GMT 4.008567 100.467979 27,825 351 492 832
2019-04-25 12:29:56 GMT 3.995728 100.470108 27,750 351 491 896
2019-04-25 12:29:51 GMT 3.984924 100.471832 27,675 351 491 960
2019-04-25 12:29:47 GMT 3.975906 100.473274 27,625 351 491 960
2019-04-25 12:29:44 GMT 3.971604 100.473946 27,575 351 490 960
2019-04-25 12:29:40 GMT 3.961029 100.475647 27,550 351 490 896
2019-04-25 12:29:37 GMT 3.953384 100.476906 27,500 351 490 832
2019-04-25 12:29:32 GMT 3.943954 100.478439 27,450 351 489 768
2019-04-25 12:29:29 GMT 3.937016 100.479584 27,400 351 488 832
2019-04-25 12:29:24 GMT 3.923562 100.481766 27,325 351 487 960
2019-04-25 12:29:21 GMT 3.913274 100.483467 27,250 351 487 1088
2019-04-25 12:29:13 GMT 3.899689 100.485703 27,150 351 487 1152
2019-04-25 12:29:07 GMT 3.888062 100.487617 27,050 351 486 960
2019-04-25 12:29:03 GMT 3.878919 100.489151 27,025 351 486 704
2019-04-25 12:29:00 GMT 3.871994 100.490265 27,000 351 486 576
2019-04-25 12:28:57 GMT 3.866908 100.491089 26,950 351 485 640
2019-04-25 12:28:52 GMT 3.851578 100.493523 26,875 351 483 896
2019-04-25 12:28:49 GMT 3.841584 100.495163 26,825 351 482 832
2019-04-25 12:28:41 GMT 3.828598 100.497253 26,775 351 481 448
2019-04-25 12:28:36 GMT 3.819984 100.498665 26,750 351 479 192
2019-04-25 12:28:32 GMT 3.803101 100.501442 26,725 351 476 192
2019-04-25 12:28:26 GMT 3.797219 100.502411 26,725 351 475 192
2019-04-25 12:28:22 GMT 3.786326 100.504158 26,700 351 472 256
2019-04-25 12:28:15 GMT 3.774688 100.506058 26,675 351 470 384
2019-04-25 12:28:09 GMT 3.758302 100.508705 26,625 351 467 576
2019-04-25 12:28:05 GMT 3.751648 100.509773 26,600 351 467 640
2019-04-25 12:27:58 GMT 3.735031 100.512474 26,525 351 463 640
2019-04-25 12:27:55 GMT 3.729253 100.513397 26,500 351 463 640
2019-04-25 12:27:47 GMT 3.712727 100.515999 26,425 351 460 448
2019-04-25 12:27:44 GMT 3.707428 100.516846 26,425 351 459 256
2019-04-25 12:27:37 GMT 3.693512 100.519081 26,400 351 456 192
2019-04-25 12:27:34 GMT 3.684935 100.520500 26,375 351 454 256
2019-04-25 12:27:28 GMT 3.671402 100.522667 26,350 351 451 320
2019-04-25 12:27:23 GMT 3.662750 100.524063 26,350 351 450 320
2019-04-25 12:27:17 GMT 3.648743 100.526344 26,300 351 447 576
2019-04-25 12:27:13 GMT 3.640915 100.527557 26,250 351 445 768
2019-04-25 12:27:05 GMT 3.625854 100.529976 26,125 351 443 1152
2019-04-25 12:27:01 GMT 3.618942 100.531044 26,100 351 443 1408
2019-04-25 12:26:55 GMT 3.605704 100.533188 25,950 351 443 1472
2019-04-25 12:26:51 GMT 3.598618 100.534309 25,875 351 443 1344
2019-04-25 12:26:44 GMT 3.576645 100.537842 25,675 351 442 1472
2019-04-25 12:26:40 GMT 3.576645 100.537842 25,650 351 442 1472
2019-04-25 12:26:32 GMT 3.557556 100.540962 25,425 351 442 1408
2019-04-25 12:26:29 GMT 3.554543 100.541473 25,400 351 442 1408
2019-04-25 12:26:21 GMT 3.534439 100.544777 25,200 351 442 1216
2019-04-25 12:26:18 GMT 3.532425 100.545151 25,200 351 441 1280
2019-04-25 12:26:11 GMT 3.515854 100.548042 24,975 350 440 1536
2019-04-25 12:26:08 GMT 3.511414 100.548828 24,950 350 441 1536
2019-04-25 12:25:57 GMT 3.489463 100.552933 24,725 350 442 1472
2019-04-25 12:25:49 GMT 3.471176 100.556511 24,500 349 440 1088
2019-04-25 12:25:46 GMT 3.467560 100.557213 24,475 349 440 1152
2019-04-25 12:25:38 GMT 3.448916 100.560844 24,325 349 438 1216
2019-04-25 12:25:35 GMT 3.445496 100.561539 24,275 349 438 1216
2019-04-25 12:25:27 GMT 3.426571 100.565201 24,125 350 435 1088
2019-04-25 12:25:24 GMT 3.423777 100.565773 24,075 350 435 1088
2019-04-25 12:25:17 GMT 3.405901 100.569176 23,950 350 433 1024
2019-04-25 12:25:14 GMT 3.402924 100.569778 23,925 350 433 1024
2019-04-25 12:25:06 GMT 3.386353 100.572945 23,775 349 432 1280
2019-04-25 12:25:03 GMT 3.381415 100.573914 23,700 349 432 1408
2019-04-25 12:24:55 GMT 3.363725 100.577370 23,500 349 430 1472
2019-04-25 12:24:43 GMT 3.341949 100.581604 23,175 350 429 1600
2019-04-25 12:24:33 GMT 3.321991 100.585373 23,025 349 428 1408
2019-04-25 12:24:23 GMT 3.299855 100.591202 22,775 341 429 1216
2019-04-25 12:24:13 GMT 3.282715 100.598221 22,600 334 429 1216
2019-04-25 12:24:02 GMT 3.263351 100.609253 22,350 326 429 1856
2019-04-25 12:23:50 GMT 3.246600 100.621887 22,050 319 431 1344
2019-04-25 12:23:47 GMT 3.242177 100.625908 22,000 316 432 768
2019-04-25 12:23:41 GMT 3.232086 100.636444 21,975 310 430 64
2019-04-25 12:23:37 GMT 3.228516 100.640724 21,975 309 431 -64
2019-04-25 12:23:27 GMT 3.214554 100.658226 22,000 309 431 -192
2019-04-25 12:23:17 GMT 3.202189 100.673737 22,025 309 431 -128
2019-04-25 12:23:08 GMT 3.191849 100.686668 22,000 309 431 256
2019-04-25 12:23:01 GMT 3.183884 100.696678 21,950 309 431 512
2019-04-25 12:22:58 GMT 3.177749 100.704376 21,900 309 431 1088
2019-04-25 12:22:54 GMT 3.175002 100.707787 21,850 309 431 1152
2019-04-25 12:22:47 GMT 3.165831 100.719337 21,650 309 429 1728
2019-04-25 12:22:44 GMT 3.161957 100.724144 21,600 309 430 1728
2019-04-25 12:22:36 GMT 3.152331 100.736580 21,400 307 430 1728
2019-04-25 12:22:33 GMT 3.148636 100.741508 21,325 307 429 1664
2019-04-25 12:22:28 GMT 3.142742 100.749741 21,175 305 429 1664
2019-04-25 12:22:25 GMT 3.139481 100.754547 21,100 303 428 1664
2019-04-25 12:22:22 GMT 3.136597 100.759026 21,050 303 428 1664
2019-04-25 12:22:15 GMT 3.127991 100.773071 20,825 300 428 1792
2019-04-25 12:22:07 GMT 3.121170 100.785126 20,650 300 427 1536
2019-04-25 12:22:02 GMT 3.115834 100.794586 20,575 300 427 1408
2019-04-25 12:21:57 GMT 3.111179 100.802826 20,425 300 425 1408
2019-04-25 12:21:53 GMT 3.107315 100.809692 20,350 300 424 1408
2019-04-25 12:21:43 GMT 3.096748 100.828445 20,100 300 420 1408
2019-04-25 12:21:36 GMT 3.087067 100.845604 19,875 300 419 1472
2019-04-25 12:21:32 GMT 3.087067 100.845604 19,875 300 419 1472
2019-04-25 12:21:21 GMT 3.076630 100.864128 19,650 300 416 1344
2019-04-25 12:21:11 GMT 3.067062 100.881264 19,425 300 414 1472
2019-04-25 12:21:03 GMT 3.060196 100.893593 19,275 299 411 1536
2019-04-25 12:20:59 GMT 3.056717 100.899925 19,200 299 410 1472
2019-04-25 12:20:54 GMT 3.051041 100.910263 19,025 299 409 1728
2019-04-25 12:20:48 GMT 3.046326 100.918922 18,925 299 409 1856
2019-04-25 12:20:42 GMT 3.041428 100.927856 18,725 299 408 1856
2019-04-25 12:20:39 GMT 3.037033 100.935822 18,575 299 407 1856
2019-04-25 12:20:33 GMT 3.031952 100.945084 18,425 299 407 1984
2019-04-25 12:20:27 GMT 3.027557 100.952995 18,275 299 406 1856
2019-04-25 12:20:17 GMT 3.018036 100.970497 18,000 299 405 1792
2019-04-25 12:20:12 GMT 3.013046 100.979767 17,825 299 404 1728
2019-04-25 12:20:07 GMT 3.008606 100.987953 17,700 299 403 1792
2019-04-25 12:20:01 GMT 3.003937 100.996475 17,550 299 402 1792
2019-04-25 12:19:56 GMT 2.996149 101.010666 17,325 299 401 1792
2019-04-25 12:19:50 GMT 2.994333 101.013939 17,250 299 400 1792
2019-04-25 12:19:43 GMT 2.988190 101.025108 17,050 299 399 1920
2019-04-25 12:19:39 GMT 2.984985 101.030922 16,950 299 398 2048
2019-04-25 12:19:32 GMT 2.977890 101.043869 16,700 299 397 2112
2019-04-25 12:19:29 GMT 2.975784 101.047729 16,600 299 397 2112
2019-04-25 12:19:20 GMT 2.967453 101.062859 16,300 299 396 2048
2019-04-25 12:19:16 GMT 2.964615 101.067978 16,200 299 395 1920
2019-04-25 12:19:10 GMT 2.957565 101.080780 15,950 299 393 2112
2019-04-25 12:19:06 GMT 2.955508 101.084496 15,875 299 393 2112
2019-04-25 12:18:58 GMT 2.947723 101.098656 15,600 299 391 1664
2019-04-25 12:18:47 GMT 2.938517 101.115227 15,350 299 387 1728
2019-04-25 12:18:34 GMT 2.927624 101.134880 15,025 299 382 1472
2019-04-25 12:18:24 GMT 2.918779 101.150932 14,775 299 376 1536
2019-04-25 12:18:18 GMT 2.914032 101.159645 14,650 299 373 1344
2019-04-25 12:18:14 GMT 2.910679 101.165901 14,575 299 371 1216
2019-04-25 12:18:09 GMT 2.905837 101.174942 14,475 298 367 960
2019-04-25 12:18:03 GMT 2.902067 101.182190 14,375 297 362 960
2019-04-25 12:17:58 GMT 2.897827 101.190742 14,300 296 360 960
2019-04-25 12:17:53 GMT 2.894804 101.197197 14,225 294 355 960
2019-04-25 12:17:47 GMT 2.890661 101.207146 14,150 291 350 896
2019-04-25 12:17:42 GMT 2.888489 101.213081 14,075 290 347 896
2019-04-25 12:17:32 GMT 2.882950 101.228958 13,925 289 337 896
2019-04-25 12:17:21 GMT 2.877548 101.244743 13,700 289 329 2048
2019-04-25 12:17:10 GMT 2.872147 101.260239 13,050 290 325 2176
2019-04-25 12:17:01 GMT 2.867292 101.274055 13,050 290 325 2176
2019-04-25 12:16:51 GMT 2.861938 101.289200 12,675 290 322 2240
2019-04-25 12:16:38 GMT 2.855621 101.306839 12,225 290 319 2176
2019-04-25 12:16:28 GMT 2.850394 101.321411 11,875 290 317 2304
2019-04-25 12:16:21 GMT 2.847507 101.329460 11,650 290 316 2304
2019-04-25 12:16:18 GMT 2.846157 101.333298 11,550 290 316 2240
2019-04-25 12:16:11 GMT 2.842255 101.344177 11,275 290 314 2304
2019-04-25 12:16:08 GMT 2.841110 101.347481 11,200 290 313 2304
2019-04-25 12:16:04 GMT 2.838959 101.353485 11,025 290 313 2368
2019-04-25 12:16:01 GMT 2.837219 101.358421 10,900 290 312 2304
2019-04-25 12:15:57 GMT 2.836009 101.361809 10,800 290 311 2176
2019-04-25 12:15:52 GMT 2.833145 101.369827 10,625 290 309 2048
2019-04-25 12:15:49 GMT 2.831909 101.373314 10,525 290 309 2112
2019-04-25 12:15:46 GMT 2.830609 101.376961 10,450 290 308 2176
2019-04-25 12:15:39 GMT 2.826965 101.387283 10,175 290 306 2304
2019-04-25 12:15:35 GMT 2.825592 101.391335 10,050 290 305 2368
2019-04-25 12:15:27 GMT 2.821578 101.403236 9,725 288 304 2560
2019-04-25 12:15:20 GMT 2.818785 101.412666 9,450 285 303 2496
2019-04-25 12:15:15 GMT 2.816317 101.425545 9,100 276 301 2112
2019-04-25 12:15:06 GMT 2.815933 101.431786 8,950 272 299 2240
2019-04-25 12:15:01 GMT 2.815842 101.439796 8,750 270 297 2304
2019-04-25 12:14:57 GMT 2.815842 101.445007 8,625 270 296 2432
2019-04-25 12:14:53 GMT 2.815842 101.449707 8,500 270 295 2496
2019-04-25 12:14:46 GMT 2.815852 101.459641 8,200 270 294 2688
2019-04-25 12:14:43 GMT 2.815842 101.464653 8,050 270 293 2688
2019-04-25 12:14:39 GMT 2.815852 101.468872 7,925 270 292 2688
2019-04-25 12:14:36 GMT 2.815852 101.473991 7,750 270 292 2688
2019-04-25 12:14:31 GMT 2.815805 101.478584 7,600 270 292 2624
2019-04-25 12:14:25 GMT 2.815796 101.488724 7,300 270 290 2688
2019-04-25 12:14:21 GMT 2.815805 101.492599 7,175 270 290 2688
2019-04-25 12:14:14 GMT 2.815796 101.502357 6,850 270 289 2752
2019-04-25 12:14:10 GMT 2.815805 101.507042 6,700 270 289 2752
2019-04-25 12:14:04 GMT 2.815805 101.516937 6,400 270 288 2752
2019-04-25 12:14:00 GMT 2.815805 101.520920 6,250 271 287 2816
2019-04-25 12:13:53 GMT 2.815759 101.531525 5,900 271 287 2816
2019-04-25 12:13:50 GMT 2.815704 101.535362 5,775 271 286 2816
2019-04-25 12:13:41 GMT 2.815619 101.545586 5,450 271 285 2688
2019-04-25 12:13:38 GMT 2.815572 101.549286 5,325 271 285 2688
2019-04-25 12:13:31 GMT 2.815479 101.559509 5,000 271 283 2560
2019-04-25 12:13:28 GMT 2.815384 101.563293 4,875 272 282 2304
2019-04-25 12:13:21 GMT 2.815153 101.576653 4,575 272 275 1600
2019-04-25 12:13:10 GMT 2.814880 101.587036 4,375 272 266 1408
2019-04-25 12:12:58 GMT 2.814502 101.599998 4,125 273 257 1408
2019-04-25 12:12:51 GMT 2.814129 101.609138 3,950 289 212 960
2019-04-25 12:12:48 GMT 2.813919 101.613152 3,925 274 244 960
2019-04-25 12:12:36 GMT 2.812592 101.626373 3,750 281 225 960
2019-04-25 12:12:25 GMT 2.809982 101.636665 3,600 289 212 960
2019-04-25 12:12:17 GMT 2.807510 101.643784 3,450 290 204 1792
2019-04-25 12:12:14 GMT 2.806495 101.646736 3,350 289 203 1984
2019-04-25 12:12:06 GMT 2.803711 101.654770 3,075 289 199 2048
2019-04-25 12:12:03 GMT 2.803283 101.656067 3,025 289 199 2048
2019-04-25 12:11:57 GMT 2.801327 101.661659 2,825 290 199 2048
2019-04-25 12:11:53 GMT 2.800232 101.664688 2,700 290 198 2048
2019-04-25 12:11:45 GMT 2.797897 101.671204 2,475 290 196 2048
2019-04-25 12:11:42 GMT 2.796952 101.673874 2,350 291 194 2112
2019-04-25 12:11:37 GMT 2.794810 101.679604 2,125 292 194 2432
2019-04-25 12:11:26 GMT 2.790993 101.688553 1,675 297 194 2816
2019-04-25 12:11:13 GMT 2.784755 101.696983 1,150 324 191 2816

Making use of Plane Finder data

You are free to use the raw flight data, aircraft information and images provided in this report for your own purposes provided the data is correctly attributed to Plane Finder. We ask that you please credit Plane Finder and link to planefinder.net in close proximity to the content.

Optionally one of the following logos (no smaller then 150x24px) can be used and must link to planefinder.net

Embedding the Plane Finder map

You are welcome to embed the Plane Finder playback map on your website to offer visitors a more interactive experience. We suggest using the following HTML code:

<iframe src="//planefinder.net/data/report/SV835-HZ-ARH-7700-squawk-2019-04-25/map" width="800" height="600" seamless="seamless"></iframe>

Where our data comes from

Plane Finder has a global network of data feeds and antenna radars that receive data broadcast directly from aircraft. The primary technologies used are ADS-B and MLAT. We also show feeds from the FAA and a FLARM glider feed.

Click here to find out more about the Plane Finder network.

How we collect our data